<?xml version="1.0" encoding="UTF-8" standalone="no" ?>
<gpx xmlns="http://www.topografix.com/GPX/1/1" xmlns:xsi="http://www.w3.org/2001/XMLSchema-instance" xsi:schemaLocation="http://www.topografix.com/GPX/1/1 http://www.topografix.com/GPX/1/1/gpx.xsd" version="1.1" creator="VisuGPX - https://www.visugpx.com">
  <metadata>
    <name>Autour du Puy de Sancy - Mont Dore - Prends-toi-Garde - lac de Guery - lac de Servières - hameau de Pessade - cascade de Queureuilh</name>
    <desc><![CDATA[Voir des photos sur www.en-compagnie-de-zoe.org]]></desc>
  </metadata>
  <trk>
    <name><![CDATA[Autour du Puy de Sancy - Mont Dore - Prends-toi-Garde - lac de Guery - lac de Servières - hameau de Pessade - cascade de Queureuilh_1]]></name>
    <trkseg>
      <trkpt lat="45.59469" lon="2.79708">
        <ele>1158.2</ele>
        <time>2015-08-21T07:50:40Z</time>
      </trkpt>
      <trkpt lat="45.59468" lon="2.79719">
        <ele>1158.2</ele>
        <time>2015-08-21T07:50:45Z</time>
      </trkpt>
      <trkpt lat="45.59482" lon="2.79716">
        <ele>1159.3363074263</ele>
        <time>2015-08-21T07:50:50Z</time>
      </trkpt>
      <trkpt lat="45.59388" lon="2.7981">
        <ele>1159.7457194258</ele>
        <time>2015-08-21T07:50:55Z</time>
      </trkpt>
      <trkpt lat="45.59363" lon="2.79842">
        <ele>1162.2184965681</ele>
        <time>2015-08-21T07:51:00Z</time>
      </trkpt>
      <trkpt lat="45.59371" lon="2.79842">
        <ele>1162.2184965681</ele>
        <time>2015-08-21T07:51:05Z</time>
      </trkpt>
      <trkpt lat="45.59377" lon="2.79844">
        <ele>1166.7803876117</ele>
        <time>2015-08-21T07:51:10Z</time>
      </trkpt>
      <trkpt lat="45.59373" lon="2.79856">
        <ele>1171.5702919603</ele>
        <time>2015-08-21T07:51:15Z</time>
      </trkpt>
      <trkpt lat="45.59369" lon="2.79867">
        <ele>1171.5702919603</ele>
        <time>2015-08-21T07:51:20Z</time>
      </trkpt>
      <trkpt lat="45.59367" lon="2.79874">
        <ele>1176.127150365</ele>
        <time>2015-08-21T07:51:25Z</time>
      </trkpt>
      <trkpt lat="45.59365" lon="2.79879">
        <ele>1176.127150365</ele>
        <time>2015-08-21T07:51:30Z</time>
      </trkpt>
      <trkpt lat="45.5936" lon="2.79888">
        <ele>1180.1024810337</ele>
        <time>2015-08-21T07:51:35Z</time>
      </trkpt>
      <trkpt lat="45.59352" lon="2.79894">
        <ele>1183.3857476393</ele>
        <time>2015-08-21T07:51:40Z</time>
      </trkpt>
      <trkpt lat="45.59344" lon="2.79902">
        <ele>1185.7712250078</ele>
        <time>2015-08-21T07:51:45Z</time>
      </trkpt>
      <trkpt lat="45.5934" lon="2.79908">
        <ele>1185.7712250078</ele>
        <time>2015-08-21T07:51:50Z</time>
      </trkpt>
      <trkpt lat="45.59335" lon="2.79905">
        <ele>1187.4047031055</ele>
        <time>2015-08-21T07:51:55Z</time>
      </trkpt>
      <trkpt lat="45.59325" lon="2.79902">
        <ele>1188.4962379171</ele>
        <time>2015-08-21T07:52:00Z</time>
      </trkpt>
      <trkpt lat="45.59318" lon="2.79897">
        <ele>1188.4962379171</ele>
        <time>2015-08-21T07:52:05Z</time>
      </trkpt>
      <trkpt lat="45.59319" lon="2.7989">
        <ele>1189.2424983907</ele>
        <time>2015-08-21T07:52:10Z</time>
      </trkpt>
      <trkpt lat="45.5882" lon="2.80324">
        <ele>1174.3865121248</ele>
        <time>2015-08-21T07:52:15Z</time>
      </trkpt>
      <trkpt lat="45.58827" lon="2.8033">
        <ele>1174.3865121248</ele>
        <time>2015-08-21T07:52:20Z</time>
      </trkpt>
      <trkpt lat="45.58831" lon="2.80337">
        <ele>1156.8307128305</ele>
        <time>2015-08-21T07:52:25Z</time>
      </trkpt>
      <trkpt lat="45.58836" lon="2.80341">
        <ele>1156.8307128305</ele>
        <time>2015-08-21T07:52:30Z</time>
      </trkpt>
      <trkpt lat="45.5884" lon="2.80347">
        <ele>1138.740782101</ele>
        <time>2015-08-21T07:52:35Z</time>
      </trkpt>
      <trkpt lat="45.58844" lon="2.80354">
        <ele>1138.740782101</ele>
        <time>2015-08-21T07:52:40Z</time>
      </trkpt>
      <trkpt lat="45.58847" lon="2.80361">
        <ele>1121.7455866014</ele>
        <time>2015-08-21T07:52:45Z</time>
      </trkpt>
      <trkpt lat="45.58849" lon="2.80369">
        <ele>1121.7455866014</ele>
        <time>2015-08-21T07:52:50Z</time>
      </trkpt>
      <trkpt lat="45.58852" lon="2.80375">
        <ele>1106.2390499374</ele>
        <time>2015-08-21T07:52:55Z</time>
      </trkpt>
      <trkpt lat="45.58862" lon="2.804">
        <ele>1092.0805918469</ele>
        <time>2015-08-21T07:53:12Z</time>
      </trkpt>
      <trkpt lat="45.58864" lon="2.80402">
        <ele>1092.0805918469</ele>
        <time>2015-08-21T07:53:15Z</time>
      </trkpt>
      <trkpt lat="45.58875" lon="2.80439">
        <ele>1078.927831131</ele>
        <time>2015-08-21T07:53:44Z</time>
      </trkpt>
      <trkpt lat="45.58879" lon="2.80443">
        <ele>1078.927831131</ele>
        <time>2015-08-21T07:53:45Z</time>
      </trkpt>
      <trkpt lat="45.58887" lon="2.80454">
        <ele>1067.0620445904</ele>
        <time>2015-08-21T07:53:53Z</time>
      </trkpt>
      <trkpt lat="45.5889" lon="2.80461">
        <ele>1067.0620445904</ele>
        <time>2015-08-21T07:53:57Z</time>
      </trkpt>
      <trkpt lat="45.58891" lon="2.80464">
        <ele>1067.0620445904</ele>
        <time>2015-08-21T07:54:00Z</time>
      </trkpt>
      <trkpt lat="45.58915" lon="2.80498">
        <ele>1056.1009552483</ele>
        <time>2015-08-21T07:54:28Z</time>
      </trkpt>
      <trkpt lat="45.58916" lon="2.805">
        <ele>1056.1009552483</ele>
        <time>2015-08-21T07:54:36Z</time>
      </trkpt>
      <trkpt lat="45.58934" lon="2.80515">
        <ele>1046.1060499504</ele>
        <time>2015-08-21T07:54:45Z</time>
      </trkpt>
      <trkpt lat="45.58968" lon="2.80527">
        <ele>1037.0897391208</ele>
        <time>2015-08-21T07:55:12Z</time>
      </trkpt>
      <trkpt lat="45.58971" lon="2.80531">
        <ele>1037.0897391208</ele>
        <time>2015-08-21T07:55:12Z</time>
      </trkpt>
      <trkpt lat="45.5899" lon="2.80564">
        <ele>1028.7604609267</ele>
        <time>2015-08-21T07:55:35Z</time>
      </trkpt>
      <trkpt lat="45.58992" lon="2.8058">
        <ele>1021.3691796833</ele>
        <time>2015-08-21T07:55:46Z</time>
      </trkpt>
      <trkpt lat="45.58991" lon="2.80587">
        <ele>1021.3691796833</ele>
        <time>2015-08-21T07:55:57Z</time>
      </trkpt>
      <trkpt lat="45.58994" lon="2.8061">
        <ele>1014.8480504014</ele>
        <time>2015-08-21T07:56:03Z</time>
      </trkpt>
      <trkpt lat="45.58995" lon="2.80611">
        <ele>1014.8480504014</ele>
        <time>2015-08-21T07:56:13Z</time>
      </trkpt>
      <trkpt lat="45.59" lon="2.80636">
        <ele>1009.0953686683</ele>
        <time>2015-08-21T07:56:26Z</time>
      </trkpt>
      <trkpt lat="45.59" lon="2.80639">
        <ele>1009.0953686683</ele>
        <time>2015-08-21T07:56:37Z</time>
      </trkpt>
      <trkpt lat="45.59001" lon="2.8064">
        <ele>1009.0953686683</ele>
        <time>2015-08-21T07:56:37Z</time>
      </trkpt>
      <trkpt lat="45.59003" lon="2.80645">
        <ele>1009.0953686683</ele>
        <time>2015-08-21T07:56:40Z</time>
      </trkpt>
      <trkpt lat="45.5902" lon="2.80662">
        <ele>1004.3333372553</ele>
        <time>2015-08-21T07:56:55Z</time>
      </trkpt>
      <trkpt lat="45.59022" lon="2.80667">
        <ele>1004.3333372553</ele>
        <time>2015-08-21T07:56:55Z</time>
      </trkpt>
      <trkpt lat="45.59028" lon="2.80698">
        <ele>1000.5550496423</ele>
        <time>2015-08-21T07:57:14Z</time>
      </trkpt>
      <trkpt lat="45.59028" lon="2.80704">
        <ele>1000.5550496423</ele>
        <time>2015-08-21T07:57:15Z</time>
      </trkpt>
      <trkpt lat="45.59034" lon="2.80714">
        <ele>997.61938507556</ele>
        <time>2015-08-21T07:57:27Z</time>
      </trkpt>
      <trkpt lat="45.59043" lon="2.80742">
        <ele>995.9854636042</ele>
        <time>2015-08-21T07:57:43Z</time>
      </trkpt>
      <trkpt lat="45.59043" lon="2.80744">
        <ele>995.9854636042</ele>
        <time>2015-08-21T07:57:45Z</time>
      </trkpt>
      <trkpt lat="45.59049" lon="2.80776">
        <ele>995.55226872715</ele>
        <time>2015-08-21T07:58:14Z</time>
      </trkpt>
      <trkpt lat="45.59051" lon="2.80781">
        <ele>995.55226872715</ele>
        <time>2015-08-21T07:58:15Z</time>
      </trkpt>
      <trkpt lat="45.59053" lon="2.80797">
        <ele>995.80025545283</ele>
        <time>2015-08-21T07:58:23Z</time>
      </trkpt>
      <trkpt lat="45.59053" lon="2.80798">
        <ele>995.80025545283</ele>
        <time>2015-08-21T07:58:27Z</time>
      </trkpt>
      <trkpt lat="45.59056" lon="2.80824">
        <ele>996.83146827398</ele>
        <time>2015-08-21T07:58:45Z</time>
      </trkpt>
      <trkpt lat="45.59056" lon="2.80825">
        <ele>996.83146827398</ele>
        <time>2015-08-21T07:58:45Z</time>
      </trkpt>
      <trkpt lat="45.59058" lon="2.80832">
        <ele>996.83146827398</ele>
        <time>2015-08-21T07:58:50Z</time>
      </trkpt>
      <trkpt lat="45.59066" lon="2.80854">
        <ele>998.67127929502</ele>
        <time>2015-08-21T07:59:03Z</time>
      </trkpt>
      <trkpt lat="45.59068" lon="2.80856">
        <ele>998.67127929502</ele>
        <time>2015-08-21T07:59:05Z</time>
      </trkpt>
      <trkpt lat="45.5907" lon="2.80863">
        <ele>998.67127929502</ele>
        <time>2015-08-21T07:59:18Z</time>
      </trkpt>
      <trkpt lat="45.59074" lon="2.8101">
        <ele>1003.7528514679</ele>
        <time>2015-08-21T08:00:51Z</time>
      </trkpt>
      <trkpt lat="45.59077" lon="2.81025">
        <ele>1008.8747128916</ele>
        <time>2015-08-21T08:01:00Z</time>
      </trkpt>
      <trkpt lat="45.59107" lon="2.81088">
        <ele>1014.1226557655</ele>
        <time>2015-08-21T08:01:50Z</time>
      </trkpt>
      <trkpt lat="45.59114" lon="2.81097">
        <ele>1019.2887581192</ele>
        <time>2015-08-21T08:01:57Z</time>
      </trkpt>
      <trkpt lat="45.59115" lon="2.81098">
        <ele>1019.2887581192</ele>
        <time>2015-08-21T08:02:00Z</time>
      </trkpt>
      <trkpt lat="45.59122" lon="2.81105">
        <ele>1024.359840265</ele>
        <time>2015-08-21T08:02:05Z</time>
      </trkpt>
      <trkpt lat="45.59134" lon="2.81117">
        <ele>1029.3654054054</ele>
        <time>2015-08-21T08:02:20Z</time>
      </trkpt>
      <trkpt lat="45.59194" lon="2.81064">
        <ele>1035.4257713186</ele>
        <time>2015-08-21T08:03:50Z</time>
      </trkpt>
      <trkpt lat="45.59193" lon="2.81047">
        <ele>1041.4435441608</ele>
        <time>2015-08-21T08:04:01Z</time>
      </trkpt>
      <trkpt lat="45.59213" lon="2.81042">
        <ele>1047.6628786129</ele>
        <time>2015-08-21T08:04:41Z</time>
      </trkpt>
      <trkpt lat="45.59214" lon="2.8105">
        <ele>1047.6628786129</ele>
        <time>2015-08-21T08:05:45Z</time>
      </trkpt>
      <trkpt lat="45.59221" lon="2.8105">
        <ele>1054.2553438192</ele>
        <time>2015-08-21T08:05:54Z</time>
      </trkpt>
      <trkpt lat="45.59227" lon="2.8105">
        <ele>1054.2553438192</ele>
        <time>2015-08-21T08:06:00Z</time>
      </trkpt>
      <trkpt lat="45.59249" lon="2.8105">
        <ele>1060.3392068972</ele>
        <time>2015-08-21T08:06:19Z</time>
      </trkpt>
      <trkpt lat="45.59271" lon="2.81052">
        <ele>1066.3018008415</ele>
        <time>2015-08-21T08:06:36Z</time>
      </trkpt>
      <trkpt lat="45.59277" lon="2.8105">
        <ele>1066.3018008415</ele>
        <time>2015-08-21T08:06:37Z</time>
      </trkpt>
      <trkpt lat="45.59284" lon="2.81054">
        <ele>1072.1342234407</ele>
        <time>2015-08-21T08:06:46Z</time>
      </trkpt>
      <trkpt lat="45.59286" lon="2.81055">
        <ele>1072.1342234407</ele>
        <time>2015-08-21T08:06:55Z</time>
      </trkpt>
      <trkpt lat="45.59296" lon="2.81043">
        <ele>1077.6205037184</ele>
        <time>2015-08-21T08:07:05Z</time>
      </trkpt>
      <trkpt lat="45.59304" lon="2.81043">
        <ele>1077.6205037184</ele>
        <time>2015-08-21T08:07:16Z</time>
      </trkpt>
      <trkpt lat="45.59306" lon="2.81048">
        <ele>1082.8498233271</ele>
        <time>2015-08-21T08:07:45Z</time>
      </trkpt>
      <trkpt lat="45.59287" lon="2.81068">
        <ele>1087.5313766208</ele>
        <time>2015-08-21T08:07:50Z</time>
      </trkpt>
      <trkpt lat="45.59285" lon="2.81072">
        <ele>1087.5313766208</ele>
        <time>2015-08-21T08:07:55Z</time>
      </trkpt>
      <trkpt lat="45.59279" lon="2.81076">
        <ele>1091.7475387853</ele>
        <time>2015-08-21T08:08:04Z</time>
      </trkpt>
      <trkpt lat="45.5927" lon="2.8109">
        <ele>1095.518189141</ele>
        <time>2015-08-21T08:08:13Z</time>
      </trkpt>
      <trkpt lat="45.5926" lon="2.81146">
        <ele>1098.9104776617</ele>
        <time>2015-08-21T08:08:45Z</time>
      </trkpt>
      <trkpt lat="45.59261" lon="2.81152">
        <ele>1098.9104776617</ele>
        <time>2015-08-21T08:08:55Z</time>
      </trkpt>
      <trkpt lat="45.59257" lon="2.81171">
        <ele>1101.898674633</ele>
        <time>2015-08-21T08:09:13Z</time>
      </trkpt>
      <trkpt lat="45.59254" lon="2.81181">
        <ele>1101.898674633</ele>
        <time>2015-08-21T08:09:21Z</time>
      </trkpt>
      <trkpt lat="45.59234" lon="2.81198">
        <ele>1104.5068862791</ele>
        <time>2015-08-21T08:09:35Z</time>
      </trkpt>
      <trkpt lat="45.59233" lon="2.81213">
        <ele>1106.7594855904</ele>
        <time>2015-08-21T08:09:48Z</time>
      </trkpt>
      <trkpt lat="45.59253" lon="2.81256">
        <ele>1109.0856446983</ele>
        <time>2015-08-21T08:10:47Z</time>
      </trkpt>
      <trkpt lat="45.59255" lon="2.8126">
        <ele>1109.0856446983</ele>
        <time>2015-08-21T08:10:50Z</time>
      </trkpt>
      <trkpt lat="45.59257" lon="2.81263">
        <ele>1109.0856446983</ele>
        <time>2015-08-21T08:11:00Z</time>
      </trkpt>
      <trkpt lat="45.59272" lon="2.81308">
        <ele>1111.549732968</ele>
        <time>2015-08-21T08:11:46Z</time>
      </trkpt>
      <trkpt lat="45.59273" lon="2.81322">
        <ele>1113.777555768</ele>
        <time>2015-08-21T08:11:58Z</time>
      </trkpt>
      <trkpt lat="45.59278" lon="2.81339">
        <ele>1115.7252619642</ele>
        <time>2015-08-21T08:12:32Z</time>
      </trkpt>
      <trkpt lat="45.59308" lon="2.81359">
        <ele>1118.1412041369</ele>
        <time>2015-08-21T08:12:52Z</time>
      </trkpt>
      <trkpt lat="45.59309" lon="2.8136">
        <ele>1118.1412041369</ele>
        <time>2015-08-21T08:12:55Z</time>
      </trkpt>
      <trkpt lat="45.59351" lon="2.81378">
        <ele>1121.4131696135</ele>
        <time>2015-08-21T08:13:51Z</time>
      </trkpt>
      <trkpt lat="45.59369" lon="2.814">
        <ele>1124.4011735128</ele>
        <time>2015-08-21T08:14:21Z</time>
      </trkpt>
      <trkpt lat="45.59385" lon="2.8141">
        <ele>1127.0204291535</ele>
        <time>2015-08-21T08:14:37Z</time>
      </trkpt>
      <trkpt lat="45.5939" lon="2.81424">
        <ele>1129.5180821389</ele>
        <time>2015-08-21T08:14:50Z</time>
      </trkpt>
      <trkpt lat="45.59396" lon="2.81434">
        <ele>1131.6222043659</ele>
        <time>2015-08-21T08:15:10Z</time>
      </trkpt>
      <trkpt lat="45.59401" lon="2.81447">
        <ele>1133.8754405914</ele>
        <time>2015-08-21T08:15:19Z</time>
      </trkpt>
      <trkpt lat="45.59402" lon="2.81451">
        <ele>1133.8754405914</ele>
        <time>2015-08-21T08:15:27Z</time>
      </trkpt>
      <trkpt lat="45.59408" lon="2.81468">
        <ele>1135.7379497666</ele>
        <time>2015-08-21T08:15:36Z</time>
      </trkpt>
      <trkpt lat="45.59409" lon="2.8148">
        <ele>1135.7379497666</ele>
        <time>2015-08-21T08:15:39Z</time>
      </trkpt>
      <trkpt lat="45.59411" lon="2.81487">
        <ele>1137.7071462139</ele>
        <time>2015-08-21T08:15:40Z</time>
      </trkpt>
      <trkpt lat="45.59415" lon="2.81494">
        <ele>1137.7071462139</ele>
        <time>2015-08-21T08:15:49Z</time>
      </trkpt>
      <trkpt lat="45.59415" lon="2.81494">
        <ele>1137.7071462139</ele>
        <time>2015-08-21T08:15:50Z</time>
      </trkpt>
      <trkpt lat="45.59416" lon="2.81499">
        <ele>1139.5265362466</ele>
        <time>2015-08-21T08:16:03Z</time>
      </trkpt>
      <trkpt lat="45.59424" lon="2.81525">
        <ele>1141.1498459715</ele>
        <time>2015-08-21T08:16:05Z</time>
      </trkpt>
      <trkpt lat="45.59443" lon="2.81554">
        <ele>1142.6948998394</ele>
        <time>2015-08-21T08:16:35Z</time>
      </trkpt>
      <trkpt lat="45.59457" lon="2.81571">
        <ele>1144.1836153371</ele>
        <time>2015-08-21T08:16:47Z</time>
      </trkpt>
      <trkpt lat="45.59462" lon="2.81575">
        <ele>1144.1836153371</ele>
        <time>2015-08-21T08:16:50Z</time>
      </trkpt>
      <trkpt lat="45.59466" lon="2.81584">
        <ele>1145.6075899757</ele>
        <time>2015-08-21T08:16:57Z</time>
      </trkpt>
      <trkpt lat="45.59485" lon="2.81602">
        <ele>1146.8726169738</ele>
        <time>2015-08-21T08:17:38Z</time>
      </trkpt>
      <trkpt lat="45.59503" lon="2.81584">
        <ele>1148.0080348971</ele>
        <time>2015-08-21T08:17:48Z</time>
      </trkpt>
      <trkpt lat="45.59517" lon="2.81572">
        <ele>1149.0558893376</ele>
        <time>2015-08-21T08:17:50Z</time>
      </trkpt>
      <trkpt lat="45.59524" lon="2.81562">
        <ele>1150.0265371567</ele>
        <time>2015-08-21T08:18:05Z</time>
      </trkpt>
      <trkpt lat="45.59526" lon="2.81549">
        <ele>1151.0742695173</ele>
        <time>2015-08-21T08:18:32Z</time>
      </trkpt>
      <trkpt lat="45.5953" lon="2.81531">
        <ele>1151.9376878542</ele>
        <time>2015-08-21T08:18:48Z</time>
      </trkpt>
      <trkpt lat="45.5953" lon="2.81528">
        <ele>1151.9376878542</ele>
        <time>2015-08-21T08:18:50Z</time>
      </trkpt>
      <trkpt lat="45.5953" lon="2.81511">
        <ele>1153.6450436651</ele>
        <time>2015-08-21T08:19:57Z</time>
      </trkpt>
      <trkpt lat="45.5953" lon="2.81509">
        <ele>1153.6450436651</ele>
        <time>2015-08-21T08:20:00Z</time>
      </trkpt>
      <trkpt lat="45.59529" lon="2.81509">
        <ele>1153.6450436651</ele>
        <time>2015-08-21T08:20:07Z</time>
      </trkpt>
      <trkpt lat="45.59532" lon="2.81501">
        <ele>1155.2132449509</ele>
        <time>2015-08-21T08:20:45Z</time>
      </trkpt>
      <trkpt lat="45.59534" lon="2.81494">
        <ele>1155.2132449509</ele>
        <time>2015-08-21T08:20:50Z</time>
      </trkpt>
      <trkpt lat="45.59536" lon="2.81487">
        <ele>1156.5114238576</ele>
        <time>2015-08-21T08:20:55Z</time>
      </trkpt>
      <trkpt lat="45.59536" lon="2.81481">
        <ele>1156.5114238576</ele>
        <time>2015-08-21T08:21:00Z</time>
      </trkpt>
      <trkpt lat="45.59538" lon="2.81476">
        <ele>1156.5114238576</ele>
        <time>2015-08-21T08:21:05Z</time>
      </trkpt>
      <trkpt lat="45.5954" lon="2.8147">
        <ele>1157.5777643659</ele>
        <time>2015-08-21T08:21:10Z</time>
      </trkpt>
      <trkpt lat="45.5954" lon="2.81463">
        <ele>1157.5777643659</ele>
        <time>2015-08-21T08:21:15Z</time>
      </trkpt>
      <trkpt lat="45.59541" lon="2.81459">
        <ele>1157.5777643659</ele>
        <time>2015-08-21T08:21:20Z</time>
      </trkpt>
      <trkpt lat="45.59542" lon="2.81455">
        <ele>1158.4771099757</ele>
        <time>2015-08-21T08:21:25Z</time>
      </trkpt>
      <trkpt lat="45.59546" lon="2.81454">
        <ele>1158.4771099757</ele>
        <time>2015-08-21T08:21:30Z</time>
      </trkpt>
      <trkpt lat="45.59549" lon="2.81467">
        <ele>1159.298827014</ele>
        <time>2015-08-21T08:21:43Z</time>
      </trkpt>
      <trkpt lat="45.5955" lon="2.81469">
        <ele>1159.298827014</ele>
        <time>2015-08-21T08:21:46Z</time>
      </trkpt>
      <trkpt lat="45.5955" lon="2.81471">
        <ele>1159.298827014</ele>
        <time>2015-08-21T08:21:50Z</time>
      </trkpt>
      <trkpt lat="45.59551" lon="2.81475">
        <ele>1159.298827014</ele>
        <time>2015-08-21T08:21:55Z</time>
      </trkpt>
      <trkpt lat="45.59559" lon="2.81486">
        <ele>1160.0105815244</ele>
        <time>2015-08-21T08:22:49Z</time>
      </trkpt>
      <trkpt lat="45.59587" lon="2.81507">
        <ele>1161.1305922467</ele>
        <time>2015-08-21T08:22:50Z</time>
      </trkpt>
      <trkpt lat="45.59592" lon="2.81514">
        <ele>1161.1305922467</ele>
        <time>2015-08-21T08:22:57Z</time>
      </trkpt>
      <trkpt lat="45.59611" lon="2.81535">
        <ele>1162.157415804</ele>
        <time>2015-08-21T08:23:50Z</time>
      </trkpt>
      <trkpt lat="45.59634" lon="2.81557">
        <ele>1163.4773566135</ele>
        <time>2015-08-21T08:23:55Z</time>
      </trkpt>
      <trkpt lat="45.59633" lon="2.81561">
        <ele>1163.4773566135</ele>
        <time>2015-08-21T08:24:00Z</time>
      </trkpt>
      <trkpt lat="45.59634" lon="2.81563">
        <ele>1163.4773566135</ele>
        <time>2015-08-21T08:24:11Z</time>
      </trkpt>
      <trkpt lat="45.59638" lon="2.81551">
        <ele>1164.9428067998</ele>
        <time>2015-08-21T08:24:29Z</time>
      </trkpt>
      <trkpt lat="45.59638" lon="2.81551">
        <ele>1164.9428067998</ele>
        <time>2015-08-21T08:24:34Z</time>
      </trkpt>
      <trkpt lat="45.59648" lon="2.8152">
        <ele>1166.8779782808</ele>
        <time>2015-08-21T08:24:52Z</time>
      </trkpt>
      <trkpt lat="45.59662" lon="2.81482">
        <ele>1169.9857277983</ele>
        <time>2015-08-21T08:25:39Z</time>
      </trkpt>
      <trkpt lat="45.59662" lon="2.81482">
        <ele>1169.9857277983</ele>
        <time>2015-08-21T08:25:39Z</time>
      </trkpt>
      <trkpt lat="45.59662" lon="2.81483">
        <ele>1169.9857277983</ele>
        <time>2015-08-21T08:25:40Z</time>
      </trkpt>
      <trkpt lat="45.59663" lon="2.81483">
        <ele>1169.9857277983</ele>
        <time>2015-08-21T08:25:52Z</time>
      </trkpt>
      <trkpt lat="45.5967" lon="2.81481">
        <ele>1169.9857277983</ele>
        <time>2015-08-21T08:25:57Z</time>
      </trkpt>
      <trkpt lat="45.5967" lon="2.8148">
        <ele>1173.053464632</ele>
        <time>2015-08-21T08:26:07Z</time>
      </trkpt>
      <trkpt lat="45.59677" lon="2.81484">
        <ele>1173.053464632</ele>
        <time>2015-08-21T08:26:25Z</time>
      </trkpt>
      <trkpt lat="45.59684" lon="2.81489">
        <ele>1176.9912519189</ele>
        <time>2015-08-21T08:26:39Z</time>
      </trkpt>
      <trkpt lat="45.59689" lon="2.81497">
        <ele>1176.9912519189</ele>
        <time>2015-08-21T08:26:46Z</time>
      </trkpt>
      <trkpt lat="45.59692" lon="2.81505">
        <ele>1181.0388164923</ele>
        <time>2015-08-21T08:26:52Z</time>
      </trkpt>
      <trkpt lat="45.59693" lon="2.81507">
        <ele>1181.0388164923</ele>
        <time>2015-08-21T08:26:55Z</time>
      </trkpt>
      <trkpt lat="45.59705" lon="2.81533">
        <ele>1185.6885348631</ele>
        <time>2015-08-21T08:27:32Z</time>
      </trkpt>
      <trkpt lat="45.59721" lon="2.81556">
        <ele>1190.5294309503</ele>
        <time>2015-08-21T08:27:58Z</time>
      </trkpt>
      <trkpt lat="45.59726" lon="2.81561">
        <ele>1190.5294309503</ele>
        <time>2015-08-21T08:28:00Z</time>
      </trkpt>
      <trkpt lat="45.59758" lon="2.81541">
        <ele>1196.4062519054</ele>
        <time>2015-08-21T08:28:51Z</time>
      </trkpt>
      <trkpt lat="45.5976" lon="2.81534">
        <ele>1196.4062519054</ele>
        <time>2015-08-21T08:28:56Z</time>
      </trkpt>
      <trkpt lat="45.59761" lon="2.81532">
        <ele>1196.4062519054</ele>
        <time>2015-08-21T08:29:07Z</time>
      </trkpt>
      <trkpt lat="45.59769" lon="2.81507">
        <ele>1202.0937458886</ele>
        <time>2015-08-21T08:29:31Z</time>
      </trkpt>
      <trkpt lat="45.59779" lon="2.81481">
        <ele>1207.6257042545</ele>
        <time>2015-08-21T08:29:55Z</time>
      </trkpt>
      <trkpt lat="45.59812" lon="2.81412">
        <ele>1213.8272631397</ele>
        <time>2015-08-21T08:30:51Z</time>
      </trkpt>
      <trkpt lat="45.59814" lon="2.81407">
        <ele>1213.8272631397</ele>
        <time>2015-08-21T08:31:00Z</time>
      </trkpt>
      <trkpt lat="45.59819" lon="2.81397">
        <ele>1219.6292568161</ele>
        <time>2015-08-21T08:31:00Z</time>
      </trkpt>
      <trkpt lat="45.59827" lon="2.81379">
        <ele>1225.3116958116</ele>
        <time>2015-08-21T08:31:37Z</time>
      </trkpt>
      <trkpt lat="45.59835" lon="2.81367">
        <ele>1230.5142859575</ele>
        <time>2015-08-21T08:31:57Z</time>
      </trkpt>
      <trkpt lat="45.59838" lon="2.81359">
        <ele>1230.5142859575</ele>
        <time>2015-08-21T08:32:07Z</time>
      </trkpt>
      <trkpt lat="45.59872" lon="2.81311">
        <ele>1235.3951121835</ele>
        <time>2015-08-21T08:32:55Z</time>
      </trkpt>
      <trkpt lat="45.59911" lon="2.81319">
        <ele>1240.1737850418</ele>
        <time>2015-08-21T08:33:55Z</time>
      </trkpt>
      <trkpt lat="45.59938" lon="2.8134">
        <ele>1245.1407095716</ele>
        <time>2015-08-21T08:34:37Z</time>
      </trkpt>
      <trkpt lat="45.59957" lon="2.81358">
        <ele>1249.7281996678</ele>
        <time>2015-08-21T08:34:55Z</time>
      </trkpt>
      <trkpt lat="45.59962" lon="2.81351">
        <ele>1249.7281996678</ele>
        <time>2015-08-21T08:35:09Z</time>
      </trkpt>
      <trkpt lat="45.60004" lon="2.81309">
        <ele>1254.6804869545</ele>
        <time>2015-08-21T08:35:56Z</time>
      </trkpt>
      <trkpt lat="45.60009" lon="2.81308">
        <ele>1254.6804869545</ele>
        <time>2015-08-21T08:36:00Z</time>
      </trkpt>
      <trkpt lat="45.60014" lon="2.81309">
        <ele>1259.2587330372</ele>
        <time>2015-08-21T08:36:06Z</time>
      </trkpt>
      <trkpt lat="45.60015" lon="2.813">
        <ele>1259.2587330372</ele>
        <time>2015-08-21T08:36:10Z</time>
      </trkpt>
      <trkpt lat="45.60018" lon="2.81297">
        <ele>1263.9763928356</ele>
        <time>2015-08-21T08:36:17Z</time>
      </trkpt>
      <trkpt lat="45.60019" lon="2.81297">
        <ele>1263.9763928356</ele>
        <time>2015-08-21T08:36:20Z</time>
      </trkpt>
      <trkpt lat="45.6002" lon="2.81297">
        <ele>1263.9763928356</ele>
        <time>2015-08-21T08:36:25Z</time>
      </trkpt>
      <trkpt lat="45.60024" lon="2.81296">
        <ele>1263.9763928356</ele>
        <time>2015-08-21T08:36:30Z</time>
      </trkpt>
      <trkpt lat="45.60028" lon="2.81294">
        <ele>1268.5303838544</ele>
        <time>2015-08-21T08:36:35Z</time>
      </trkpt>
      <trkpt lat="45.60034" lon="2.81295">
        <ele>1268.5303838544</ele>
        <time>2015-08-21T08:36:45Z</time>
      </trkpt>
      <trkpt lat="45.60039" lon="2.81295">
        <ele>1272.9865626438</ele>
        <time>2015-08-21T08:36:50Z</time>
      </trkpt>
      <trkpt lat="45.60047" lon="2.81287">
        <ele>1277.9253354251</ele>
        <time>2015-08-21T08:37:05Z</time>
      </trkpt>
      <trkpt lat="45.60051" lon="2.81287">
        <ele>1277.9253354251</ele>
        <time>2015-08-21T08:37:11Z</time>
      </trkpt>
      <trkpt lat="45.60051" lon="2.81288">
        <ele>1277.9253354251</ele>
        <time>2015-08-21T08:37:18Z</time>
      </trkpt>
      <trkpt lat="45.60055" lon="2.81288">
        <ele>1277.9253354251</ele>
        <time>2015-08-21T08:37:20Z</time>
      </trkpt>
      <trkpt lat="45.60069" lon="2.81297">
        <ele>1282.8020882604</ele>
        <time>2015-08-21T08:38:03Z</time>
      </trkpt>
      <trkpt lat="45.60088" lon="2.81295">
        <ele>1288.0351581471</ele>
        <time>2015-08-21T08:38:05Z</time>
      </trkpt>
      <trkpt lat="45.60094" lon="2.81294">
        <ele>1288.0351581471</ele>
        <time>2015-08-21T08:38:11Z</time>
      </trkpt>
      <trkpt lat="45.60145" lon="2.8129">
        <ele>1293.7229937882</ele>
        <time>2015-08-21T08:39:08Z</time>
      </trkpt>
      <trkpt lat="45.60147" lon="2.81289">
        <ele>1293.7229937882</ele>
        <time>2015-08-21T08:39:16Z</time>
      </trkpt>
      <trkpt lat="45.60201" lon="2.81283">
        <ele>1300.7052006495</ele>
        <time>2015-08-21T08:40:16Z</time>
      </trkpt>
      <trkpt lat="45.6022" lon="2.81281">
        <ele>1307.0465480349</ele>
        <time>2015-08-21T08:40:33Z</time>
      </trkpt>
      <trkpt lat="45.60259" lon="2.8127">
        <ele>1313.4495269814</ele>
        <time>2015-08-21T08:41:11Z</time>
      </trkpt>
      <trkpt lat="45.60263" lon="2.81268">
        <ele>1313.4495269814</ele>
        <time>2015-08-21T08:41:24Z</time>
      </trkpt>
      <trkpt lat="45.60284" lon="2.81269">
        <ele>1319.556125618</ele>
        <time>2015-08-21T08:41:38Z</time>
      </trkpt>
      <trkpt lat="45.60285" lon="2.8127">
        <ele>1319.556125618</ele>
        <time>2015-08-21T08:41:46Z</time>
      </trkpt>
      <trkpt lat="45.60292" lon="2.81267">
        <ele>1319.556125618</ele>
        <time>2015-08-21T08:41:52Z</time>
      </trkpt>
      <trkpt lat="45.60304" lon="2.81259">
        <ele>1325.3095221879</ele>
        <time>2015-08-21T08:42:07Z</time>
      </trkpt>
      <trkpt lat="45.60303" lon="2.8126">
        <ele>1325.3095221879</ele>
        <time>2015-08-21T08:42:10Z</time>
      </trkpt>
      <trkpt lat="45.60306" lon="2.81262">
        <ele>1325.3095221879</ele>
        <time>2015-08-21T08:42:32Z</time>
      </trkpt>
      <trkpt lat="45.60308" lon="2.81259">
        <ele>1325.3095221879</ele>
        <time>2015-08-21T08:42:35Z</time>
      </trkpt>
      <trkpt lat="45.60313" lon="2.81256">
        <ele>1330.5862093042</ele>
        <time>2015-08-21T08:42:40Z</time>
      </trkpt>
      <trkpt lat="45.60342" lon="2.81245">
        <ele>1335.1291829813</ele>
        <time>2015-08-21T08:43:15Z</time>
      </trkpt>
      <trkpt lat="45.60389" lon="2.81235">
        <ele>1339.3655157724</ele>
        <time>2015-08-21T08:43:55Z</time>
      </trkpt>
      <trkpt lat="45.60404" lon="2.81233">
        <ele>1343.0001954223</ele>
        <time>2015-08-21T08:44:08Z</time>
      </trkpt>
      <trkpt lat="45.60406" lon="2.81231">
        <ele>1343.0001954223</ele>
        <time>2015-08-21T08:44:19Z</time>
      </trkpt>
      <trkpt lat="45.60471" lon="2.81221">
        <ele>1346.3382082818</ele>
        <time>2015-08-21T08:45:07Z</time>
      </trkpt>
      <trkpt lat="45.60474" lon="2.81221">
        <ele>1346.3382082818</ele>
        <time>2015-08-21T08:45:10Z</time>
      </trkpt>
      <trkpt lat="45.60479" lon="2.81221">
        <ele>1346.3382082818</ele>
        <time>2015-08-21T08:45:15Z</time>
      </trkpt>
      <trkpt lat="45.60529" lon="2.81195">
        <ele>1350.0089976227</ele>
        <time>2015-08-21T08:46:06Z</time>
      </trkpt>
      <trkpt lat="45.60532" lon="2.81193">
        <ele>1350.0089976227</ele>
        <time>2015-08-21T08:46:19Z</time>
      </trkpt>
      <trkpt lat="45.60571" lon="2.81235">
        <ele>1353.3556066114</ele>
        <time>2015-08-21T08:47:17Z</time>
      </trkpt>
      <trkpt lat="45.60576" lon="2.81264">
        <ele>1356.2315426642</ele>
        <time>2015-08-21T08:47:46Z</time>
      </trkpt>
      <trkpt lat="45.60576" lon="2.81296">
        <ele>1358.5601492145</ele>
        <time>2015-08-21T08:48:00Z</time>
      </trkpt>
      <trkpt lat="45.60576" lon="2.81307">
        <ele>1358.5601492145</ele>
        <time>2015-08-21T08:48:07Z</time>
      </trkpt>
      <trkpt lat="45.60576" lon="2.81311">
        <ele>1360.4017254234</ele>
        <time>2015-08-21T08:48:10Z</time>
      </trkpt>
      <trkpt lat="45.60577" lon="2.81371">
        <ele>1361.8279830883</ele>
        <time>2015-08-21T08:49:00Z</time>
      </trkpt>
      <trkpt lat="45.60577" lon="2.81391">
        <ele>1362.8777478151</ele>
        <time>2015-08-21T08:49:11Z</time>
      </trkpt>
      <trkpt lat="45.60576" lon="2.814">
        <ele>1362.8777478151</ele>
        <time>2015-08-21T08:49:25Z</time>
      </trkpt>
      <trkpt lat="45.60579" lon="2.81422">
        <ele>1363.6745289223</ele>
        <time>2015-08-21T08:49:42Z</time>
      </trkpt>
      <trkpt lat="45.6058" lon="2.81439">
        <ele>1364.2181653447</ele>
        <time>2015-08-21T08:50:01Z</time>
      </trkpt>
      <trkpt lat="45.60579" lon="2.81446">
        <ele>1364.2181653447</ele>
        <time>2015-08-21T08:50:11Z</time>
      </trkpt>
      <trkpt lat="45.60577" lon="2.81446">
        <ele>1364.2181653447</ele>
        <time>2015-08-21T08:50:23Z</time>
      </trkpt>
      <trkpt lat="45.60575" lon="2.81468">
        <ele>1365.5323811876</ele>
        <time>2015-08-21T08:50:54Z</time>
      </trkpt>
      <trkpt lat="45.60575" lon="2.81479">
        <ele>1365.5323811876</ele>
        <time>2015-08-21T08:51:01Z</time>
      </trkpt>
      <trkpt lat="45.60575" lon="2.8149">
        <ele>1366.5602865446</ele>
        <time>2015-08-21T08:51:07Z</time>
      </trkpt>
      <trkpt lat="45.60575" lon="2.81495">
        <ele>1366.5602865446</ele>
        <time>2015-08-21T08:51:10Z</time>
      </trkpt>
      <trkpt lat="45.60575" lon="2.81532">
        <ele>1367.3753677248</ele>
        <time>2015-08-21T08:51:37Z</time>
      </trkpt>
      <trkpt lat="45.60575" lon="2.81553">
        <ele>1367.9453137211</ele>
        <time>2015-08-21T08:51:56Z</time>
      </trkpt>
      <trkpt lat="45.60575" lon="2.81579">
        <ele>1368.1975032798</ele>
        <time>2015-08-21T08:52:05Z</time>
      </trkpt>
      <trkpt lat="45.60575" lon="2.8158">
        <ele>1368.1975032798</ele>
        <time>2015-08-21T08:52:10Z</time>
      </trkpt>
      <trkpt lat="45.60576" lon="2.8158">
        <ele>1368.1975032798</ele>
        <time>2015-08-21T08:52:16Z</time>
      </trkpt>
      <trkpt lat="45.60576" lon="2.81584">
        <ele>1368.1975032798</ele>
        <time>2015-08-21T08:54:10Z</time>
      </trkpt>
      <trkpt lat="45.60575" lon="2.8159">
        <ele>1368.1975032798</ele>
        <time>2015-08-21T08:54:15Z</time>
      </trkpt>
      <trkpt lat="45.60573" lon="2.81632">
        <ele>1369.030953213</ele>
        <time>2015-08-21T08:54:40Z</time>
      </trkpt>
      <trkpt lat="45.60572" lon="2.81652">
        <ele>1369.5474560048</ele>
        <time>2015-08-21T08:54:55Z</time>
      </trkpt>
      <trkpt lat="45.60572" lon="2.81659">
        <ele>1369.5474560048</ele>
        <time>2015-08-21T08:54:55Z</time>
      </trkpt>
      <trkpt lat="45.60571" lon="2.8168">
        <ele>1369.7513481464</ele>
        <time>2015-08-21T08:55:14Z</time>
      </trkpt>
      <trkpt lat="45.60571" lon="2.8168">
        <ele>1369.7513481464</ele>
        <time>2015-08-21T08:55:14Z</time>
      </trkpt>
      <trkpt lat="45.60572" lon="2.81681">
        <ele>1369.7513481464</ele>
        <time>2015-08-21T08:55:18Z</time>
      </trkpt>
      <trkpt lat="45.60571" lon="2.81687">
        <ele>1369.7513481464</ele>
        <time>2015-08-21T08:55:29Z</time>
      </trkpt>
      <trkpt lat="45.60568" lon="2.81704">
        <ele>1369.6040810131</ele>
        <time>2015-08-21T08:56:12Z</time>
      </trkpt>
      <trkpt lat="45.60566" lon="2.81724">
        <ele>1368.840113513</ele>
        <time>2015-08-21T08:56:42Z</time>
      </trkpt>
      <trkpt lat="45.60562" lon="2.81738">
        <ele>1367.7192999569</ele>
        <time>2015-08-21T08:56:55Z</time>
      </trkpt>
      <trkpt lat="45.60566" lon="2.81746">
        <ele>1367.7192999569</ele>
        <time>2015-08-21T08:57:11Z</time>
      </trkpt>
      <trkpt lat="45.60575" lon="2.81747">
        <ele>1365.1572865362</ele>
        <time>2015-08-21T08:58:05Z</time>
      </trkpt>
      <trkpt lat="45.60575" lon="2.8175">
        <ele>1365.1572865362</ele>
        <time>2015-08-21T08:58:28Z</time>
      </trkpt>
      <trkpt lat="45.60568" lon="2.81768">
        <ele>1362.3292643257</ele>
        <time>2015-08-21T08:58:45Z</time>
      </trkpt>
      <trkpt lat="45.60561" lon="2.81797">
        <ele>1359.2436637178</ele>
        <time>2015-08-21T08:59:12Z</time>
      </trkpt>
      <trkpt lat="45.60562" lon="2.81801">
        <ele>1359.2436637178</ele>
        <time>2015-08-21T08:59:15Z</time>
      </trkpt>
      <trkpt lat="45.60561" lon="2.81806">
        <ele>1359.2436637178</ele>
        <time>2015-08-21T08:59:20Z</time>
      </trkpt>
      <trkpt lat="45.60561" lon="2.81811">
        <ele>1356.0960241524</ele>
        <time>2015-08-21T08:59:32Z</time>
      </trkpt>
      <trkpt lat="45.60562" lon="2.81829">
        <ele>1353.0817351135</ele>
        <time>2015-08-21T09:00:06Z</time>
      </trkpt>
      <trkpt lat="45.60559" lon="2.81867">
        <ele>1349.6028471378</ele>
        <time>2015-08-21T09:00:14Z</time>
      </trkpt>
      <trkpt lat="45.6056" lon="2.81947">
        <ele>1345.1206331309</ele>
        <time>2015-08-21T09:01:11Z</time>
      </trkpt>
      <trkpt lat="45.60559" lon="2.81951">
        <ele>1345.1206331309</ele>
        <time>2015-08-21T09:01:11Z</time>
      </trkpt>
      <trkpt lat="45.6056" lon="2.81962">
        <ele>1340.6226815682</ele>
        <time>2015-08-21T09:01:20Z</time>
      </trkpt>
      <trkpt lat="45.60569" lon="2.82056">
        <ele>1333.31988832</ele>
        <time>2015-08-21T09:02:15Z</time>
      </trkpt>
      <trkpt lat="45.60574" lon="2.82113">
        <ele>1324.9732142708</ele>
        <time>2015-08-21T09:02:51Z</time>
      </trkpt>
      <trkpt lat="45.60575" lon="2.82127">
        <ele>1316.9428206078</ele>
        <time>2015-08-21T09:03:00Z</time>
      </trkpt>
      <trkpt lat="45.60578" lon="2.82132">
        <ele>1316.9428206078</ele>
        <time>2015-08-21T09:03:05Z</time>
      </trkpt>
      <trkpt lat="45.60582" lon="2.82137">
        <ele>1309.4642742171</ele>
        <time>2015-08-21T09:03:10Z</time>
      </trkpt>
      <trkpt lat="45.60591" lon="2.82144">
        <ele>1302.5230871059</ele>
        <time>2015-08-21T09:03:22Z</time>
      </trkpt>
      <trkpt lat="45.60619" lon="2.82167">
        <ele>1295.4407584259</ele>
        <time>2015-08-21T09:03:49Z</time>
      </trkpt>
      <trkpt lat="45.60652" lon="2.82185">
        <ele>1288.5683124991</ele>
        <time>2015-08-21T09:04:16Z</time>
      </trkpt>
      <trkpt lat="45.60662" lon="2.82186">
        <ele>1282.2152892998</ele>
        <time>2015-08-21T09:04:30Z</time>
      </trkpt>
      <trkpt lat="45.60677" lon="2.82189">
        <ele>1276.5077999288</ele>
        <time>2015-08-21T09:04:44Z</time>
      </trkpt>
      <trkpt lat="45.60684" lon="2.82193">
        <ele>1276.5077999288</ele>
        <time>2015-08-21T09:04:45Z</time>
      </trkpt>
      <trkpt lat="45.60707" lon="2.82197">
        <ele>1271.6033992196</ele>
        <time>2015-08-21T09:05:05Z</time>
      </trkpt>
      <trkpt lat="45.60722" lon="2.82197">
        <ele>1267.3136454549</ele>
        <time>2015-08-21T09:05:14Z</time>
      </trkpt>
      <trkpt lat="45.60724" lon="2.82197">
        <ele>1267.3136454549</ele>
        <time>2015-08-21T09:05:15Z</time>
      </trkpt>
      <trkpt lat="45.6073" lon="2.82195">
        <ele>1267.3136454549</ele>
        <time>2015-08-21T09:05:26Z</time>
      </trkpt>
      <trkpt lat="45.6073" lon="2.82187">
        <ele>1263.9659037134</ele>
        <time>2015-08-21T09:05:44Z</time>
      </trkpt>
      <trkpt lat="45.60731" lon="2.82182">
        <ele>1263.9659037134</ele>
        <time>2015-08-21T09:05:45Z</time>
      </trkpt>
      <trkpt lat="45.60723" lon="2.82173">
        <ele>1261.053137884</ele>
        <time>2015-08-21T09:05:58Z</time>
      </trkpt>
      <trkpt lat="45.60724" lon="2.82173">
        <ele>1261.053137884</ele>
        <time>2015-08-21T09:06:01Z</time>
      </trkpt>
      <trkpt lat="45.60726" lon="2.82176">
        <ele>1261.053137884</ele>
        <time>2015-08-21T09:06:07Z</time>
      </trkpt>
      <trkpt lat="45.60727" lon="2.8218">
        <ele>1261.053137884</ele>
        <time>2015-08-21T09:06:10Z</time>
      </trkpt>
      <trkpt lat="45.60728" lon="2.82188">
        <ele>1258.7521785538</ele>
        <time>2015-08-21T09:06:15Z</time>
      </trkpt>
      <trkpt lat="45.60729" lon="2.82196">
        <ele>1258.7521785538</ele>
        <time>2015-08-21T09:06:26Z</time>
      </trkpt>
      <trkpt lat="45.60738" lon="2.82183">
        <ele>1256.87864973</ele>
        <time>2015-08-21T09:06:46Z</time>
      </trkpt>
      <trkpt lat="45.60739" lon="2.82173">
        <ele>1256.87864973</ele>
        <time>2015-08-21T09:07:00Z</time>
      </trkpt>
      <trkpt lat="45.60744" lon="2.8217">
        <ele>1255.3896214459</ele>
        <time>2015-08-21T09:07:08Z</time>
      </trkpt>
      <trkpt lat="45.60743" lon="2.82168">
        <ele>1255.3896214459</ele>
        <time>2015-08-21T09:07:16Z</time>
      </trkpt>
      <trkpt lat="45.60748" lon="2.82169">
        <ele>1255.3896214459</ele>
        <time>2015-08-21T09:07:21Z</time>
      </trkpt>
      <trkpt lat="45.60738" lon="2.82173">
        <ele>1254.3013203491</ele>
        <time>2015-08-21T09:08:13Z</time>
      </trkpt>
      <trkpt lat="45.60732" lon="2.82178">
        <ele>1254.3013203491</ele>
        <time>2015-08-21T09:08:15Z</time>
      </trkpt>
      <trkpt lat="45.60733" lon="2.82183">
        <ele>1253.583899793</ele>
        <time>2015-08-21T09:08:22Z</time>
      </trkpt>
      <trkpt lat="45.60734" lon="2.82186">
        <ele>1253.583899793</ele>
        <time>2015-08-21T09:08:25Z</time>
      </trkpt>
      <trkpt lat="45.60738" lon="2.82199">
        <ele>1253.107304481</ele>
        <time>2015-08-21T09:08:47Z</time>
      </trkpt>
      <trkpt lat="45.60757" lon="2.82212">
        <ele>1252.7355051347</ele>
        <time>2015-08-21T09:09:01Z</time>
      </trkpt>
      <trkpt lat="45.60761" lon="2.82214">
        <ele>1252.7355051347</ele>
        <time>2015-08-21T09:09:12Z</time>
      </trkpt>
      <trkpt lat="45.60797" lon="2.82223">
        <ele>1252.4714721664</ele>
        <time>2015-08-21T09:09:35Z</time>
      </trkpt>
      <trkpt lat="45.60832" lon="2.82234">
        <ele>1252.3749425544</ele>
        <time>2015-08-21T09:10:05Z</time>
      </trkpt>
      <trkpt lat="45.60849" lon="2.82241">
        <ele>1252.2122558037</ele>
        <time>2015-08-21T09:10:20Z</time>
      </trkpt>
      <trkpt lat="45.6086" lon="2.82242">
        <ele>1252.112690611</ele>
        <time>2015-08-21T09:10:31Z</time>
      </trkpt>
      <trkpt lat="45.60893" lon="2.82235">
        <ele>1251.7056327142</ele>
        <time>2015-08-21T09:10:53Z</time>
      </trkpt>
      <trkpt lat="45.60926" lon="2.82219">
        <ele>1251.0950934749</ele>
        <time>2015-08-21T09:11:11Z</time>
      </trkpt>
      <trkpt lat="45.60931" lon="2.82217">
        <ele>1251.0950934749</ele>
        <time>2015-08-21T09:11:15Z</time>
      </trkpt>
      <trkpt lat="45.60936" lon="2.82215">
        <ele>1250.5940060306</ele>
        <time>2015-08-21T09:11:20Z</time>
      </trkpt>
      <trkpt lat="45.60944" lon="2.82215">
        <ele>1250.5940060306</ele>
        <time>2015-08-21T09:11:33Z</time>
      </trkpt>
      <trkpt lat="45.60948" lon="2.82215">
        <ele>1250.3045179927</ele>
        <time>2015-08-21T09:11:35Z</time>
      </trkpt>
      <trkpt lat="45.60991" lon="2.82195">
        <ele>1249.9602825954</ele>
        <time>2015-08-21T09:12:11Z</time>
      </trkpt>
      <trkpt lat="45.60995" lon="2.82195">
        <ele>1249.9602825954</ele>
        <time>2015-08-21T09:12:15Z</time>
      </trkpt>
      <trkpt lat="45.61045" lon="2.82217">
        <ele>1249.0263554371</ele>
        <time>2015-08-21T09:12:58Z</time>
      </trkpt>
      <trkpt lat="45.61046" lon="2.82218">
        <ele>1249.0263554371</ele>
        <time>2015-08-21T09:13:07Z</time>
      </trkpt>
      <trkpt lat="45.61064" lon="2.8223">
        <ele>1247.8877496121</ele>
        <time>2015-08-21T09:13:15Z</time>
      </trkpt>
      <trkpt lat="45.61077" lon="2.82242">
        <ele>1246.829661625</ele>
        <time>2015-08-21T09:13:28Z</time>
      </trkpt>
      <trkpt lat="45.61087" lon="2.82244">
        <ele>1246.2890105856</ele>
        <time>2015-08-21T09:14:05Z</time>
      </trkpt>
      <trkpt lat="45.61091" lon="2.82241">
        <ele>1246.2890105856</ele>
        <time>2015-08-21T09:14:06Z</time>
      </trkpt>
      <trkpt lat="45.61098" lon="2.82239">
        <ele>1246.0638828794</ele>
        <time>2015-08-21T09:14:15Z</time>
      </trkpt>
      <trkpt lat="45.61099" lon="2.82239">
        <ele>1246.0638828794</ele>
        <time>2015-08-21T09:14:22Z</time>
      </trkpt>
      <trkpt lat="45.61099" lon="2.82239">
        <ele>1246.0638828794</ele>
        <time>2015-08-21T09:14:25Z</time>
      </trkpt>
      <trkpt lat="45.611" lon="2.82237">
        <ele>1246.0638828794</ele>
        <time>2015-08-21T09:14:41Z</time>
      </trkpt>
      <trkpt lat="45.61127" lon="2.82237">
        <ele>1246.2257118813</ele>
        <time>2015-08-21T09:15:09Z</time>
      </trkpt>
      <trkpt lat="45.6113" lon="2.82237">
        <ele>1246.2257118813</ele>
        <time>2015-08-21T09:15:15Z</time>
      </trkpt>
      <trkpt lat="45.61131" lon="2.82237">
        <ele>1246.2257118813</ele>
        <time>2015-08-21T09:15:20Z</time>
      </trkpt>
      <trkpt lat="45.61131" lon="2.82235">
        <ele>1246.2257118813</ele>
        <time>2015-08-21T09:16:30Z</time>
      </trkpt>
      <trkpt lat="45.61136" lon="2.82233">
        <ele>1246.7531497028</ele>
        <time>2015-08-21T09:16:35Z</time>
      </trkpt>
      <trkpt lat="45.61153" lon="2.82221">
        <ele>1247.1786845859</ele>
        <time>2015-08-21T09:16:50Z</time>
      </trkpt>
      <trkpt lat="45.61159" lon="2.82215">
        <ele>1247.1786845859</ele>
        <time>2015-08-21T09:16:57Z</time>
      </trkpt>
      <trkpt lat="45.6116" lon="2.82213">
        <ele>1247.5594706984</ele>
        <time>2015-08-21T09:17:03Z</time>
      </trkpt>
      <trkpt lat="45.61167" lon="2.82205">
        <ele>1247.934256067</ele>
        <time>2015-08-21T09:17:05Z</time>
      </trkpt>
      <trkpt lat="45.61182" lon="2.82201">
        <ele>1248.1228877436</ele>
        <time>2015-08-21T09:17:16Z</time>
      </trkpt>
      <trkpt lat="45.61184" lon="2.82202">
        <ele>1248.1228877436</ele>
        <time>2015-08-21T09:17:20Z</time>
      </trkpt>
      <trkpt lat="45.61192" lon="2.82203">
        <ele>1248.0887795867</ele>
        <time>2015-08-21T09:17:25Z</time>
      </trkpt>
      <trkpt lat="45.61223" lon="2.82209">
        <ele>1247.7555473096</ele>
        <time>2015-08-21T09:18:00Z</time>
      </trkpt>
      <trkpt lat="45.6124" lon="2.82226">
        <ele>1247.4280786572</ele>
        <time>2015-08-21T09:18:16Z</time>
      </trkpt>
      <trkpt lat="45.61247" lon="2.82217">
        <ele>1246.6396088207</ele>
        <time>2015-08-21T09:19:00Z</time>
      </trkpt>
      <trkpt lat="45.6125" lon="2.82214">
        <ele>1246.6396088207</ele>
        <time>2015-08-21T09:19:24Z</time>
      </trkpt>
      <trkpt lat="45.61251" lon="2.82201">
        <ele>1246.356977481</ele>
        <time>2015-08-21T09:20:14Z</time>
      </trkpt>
      <trkpt lat="45.61253" lon="2.8219">
        <ele>1246.356977481</ele>
        <time>2015-08-21T09:20:15Z</time>
      </trkpt>
      <trkpt lat="45.61255" lon="2.82183">
        <ele>1246.2497839038</ele>
        <time>2015-08-21T09:20:20Z</time>
      </trkpt>
      <trkpt lat="45.61268" lon="2.82162">
        <ele>1246.1989020762</ele>
        <time>2015-08-21T09:20:47Z</time>
      </trkpt>
      <trkpt lat="45.61285" lon="2.82133">
        <ele>1246.4686434661</ele>
        <time>2015-08-21T09:21:16Z</time>
      </trkpt>
      <trkpt lat="45.613" lon="2.82119">
        <ele>1246.7987750356</ele>
        <time>2015-08-21T09:21:22Z</time>
      </trkpt>
      <trkpt lat="45.61314" lon="2.82086">
        <ele>1247.1931657652</ele>
        <time>2015-08-21T09:21:46Z</time>
      </trkpt>
      <trkpt lat="45.61315" lon="2.82083">
        <ele>1247.1931657652</ele>
        <time>2015-08-21T09:21:55Z</time>
      </trkpt>
      <trkpt lat="45.6133" lon="2.82065">
        <ele>1247.7130360234</ele>
        <time>2015-08-21T09:22:12Z</time>
      </trkpt>
      <trkpt lat="45.61331" lon="2.82062">
        <ele>1247.7130360234</ele>
        <time>2015-08-21T09:22:15Z</time>
      </trkpt>
      <trkpt lat="45.61333" lon="2.82058">
        <ele>1247.7130360234</ele>
        <time>2015-08-21T09:22:21Z</time>
      </trkpt>
      <trkpt lat="45.61346" lon="2.82043">
        <ele>1248.4869899038</ele>
        <time>2015-08-21T09:22:40Z</time>
      </trkpt>
      <trkpt lat="45.6136" lon="2.82012">
        <ele>1249.4751327204</ele>
        <time>2015-08-21T09:23:14Z</time>
      </trkpt>
      <trkpt lat="45.61368" lon="2.82006">
        <ele>1249.4751327204</ele>
        <time>2015-08-21T09:23:25Z</time>
      </trkpt>
      <trkpt lat="45.61373" lon="2.82003">
        <ele>1250.668911954</ele>
        <time>2015-08-21T09:23:30Z</time>
      </trkpt>
      <trkpt lat="45.61376" lon="2.82002">
        <ele>1250.668911954</ele>
        <time>2015-08-21T09:23:35Z</time>
      </trkpt>
      <trkpt lat="45.61378" lon="2.81999">
        <ele>1250.668911954</ele>
        <time>2015-08-21T09:23:40Z</time>
      </trkpt>
      <trkpt lat="45.61377" lon="2.81993">
        <ele>1251.8726790493</ele>
        <time>2015-08-21T09:23:48Z</time>
      </trkpt>
      <trkpt lat="45.61376" lon="2.8199">
        <ele>1251.8726790493</ele>
        <time>2015-08-21T09:23:50Z</time>
      </trkpt>
      <trkpt lat="45.61366" lon="2.81983">
        <ele>1253.3520789846</ele>
        <time>2015-08-21T09:24:12Z</time>
      </trkpt>
      <trkpt lat="45.61366" lon="2.81983">
        <ele>1253.3520789846</ele>
        <time>2015-08-21T09:24:19Z</time>
      </trkpt>
      <trkpt lat="45.61348" lon="2.8198">
        <ele>1255.1365151831</ele>
        <time>2015-08-21T09:24:57Z</time>
      </trkpt>
      <trkpt lat="45.61344" lon="2.81981">
        <ele>1255.1365151831</ele>
        <time>2015-08-21T09:25:05Z</time>
      </trkpt>
      <trkpt lat="45.61328" lon="2.81982">
        <ele>1256.8923179708</ele>
        <time>2015-08-21T09:25:15Z</time>
      </trkpt>
      <trkpt lat="45.61327" lon="2.81981">
        <ele>1256.8923179708</ele>
        <time>2015-08-21T09:25:20Z</time>
      </trkpt>
      <trkpt lat="45.61321" lon="2.81957">
        <ele>1258.7717935087</ele>
        <time>2015-08-21T09:26:17Z</time>
      </trkpt>
      <trkpt lat="45.61317" lon="2.81952">
        <ele>1258.7717935087</ele>
        <time>2015-08-21T09:26:21Z</time>
      </trkpt>
      <trkpt lat="45.61316" lon="2.81953">
        <ele>1258.7717935087</ele>
        <time>2015-08-21T09:26:46Z</time>
      </trkpt>
      <trkpt lat="45.6132" lon="2.81954">
        <ele>1260.9735940789</ele>
        <time>2015-08-21T09:26:54Z</time>
      </trkpt>
      <trkpt lat="45.61331" lon="2.81947">
        <ele>1263.2343753074</ele>
        <time>2015-08-21T09:27:12Z</time>
      </trkpt>
      <trkpt lat="45.61331" lon="2.81947">
        <ele>1263.2343753074</ele>
        <time>2015-08-21T09:27:19Z</time>
      </trkpt>
      <trkpt lat="45.61339" lon="2.81945">
        <ele>1263.2343753074</ele>
        <time>2015-08-21T09:27:20Z</time>
      </trkpt>
      <trkpt lat="45.61387" lon="2.81912">
        <ele>1266.5207609468</ele>
        <time>2015-08-21T09:28:15Z</time>
      </trkpt>
      <trkpt lat="45.61399" lon="2.81904">
        <ele>1269.8090763883</ele>
        <time>2015-08-21T09:28:42Z</time>
      </trkpt>
      <trkpt lat="45.6143" lon="2.81889">
        <ele>1273.0878391387</ele>
        <time>2015-08-21T09:29:15Z</time>
      </trkpt>
      <trkpt lat="45.61467" lon="2.819">
        <ele>1276.2890805803</ele>
        <time>2015-08-21T09:30:18Z</time>
      </trkpt>
      <trkpt lat="45.6147" lon="2.81899">
        <ele>1276.2890805803</ele>
        <time>2015-08-21T09:30:20Z</time>
      </trkpt>
      <trkpt lat="45.61499" lon="2.81893">
        <ele>1279.4223972065</ele>
        <time>2015-08-21T09:30:55Z</time>
      </trkpt>
      <trkpt lat="45.61503" lon="2.81888">
        <ele>1279.4223972065</ele>
        <time>2015-08-21T09:31:03Z</time>
      </trkpt>
      <trkpt lat="45.61518" lon="2.81873">
        <ele>1282.1801340642</ele>
        <time>2015-08-21T09:31:15Z</time>
      </trkpt>
      <trkpt lat="45.61528" lon="2.81871">
        <ele>1284.6532920545</ele>
        <time>2015-08-21T09:31:22Z</time>
      </trkpt>
      <trkpt lat="45.61532" lon="2.8187">
        <ele>1284.6532920545</ele>
        <time>2015-08-21T09:31:27Z</time>
      </trkpt>
      <trkpt lat="45.61549" lon="2.81865">
        <ele>1286.4373221814</ele>
        <time>2015-08-21T09:31:52Z</time>
      </trkpt>
      <trkpt lat="45.61567" lon="2.81853">
        <ele>1287.7216720326</ele>
        <time>2015-08-21T09:32:10Z</time>
      </trkpt>
      <trkpt lat="45.61574" lon="2.81851">
        <ele>1287.7216720326</ele>
        <time>2015-08-21T09:32:15Z</time>
      </trkpt>
      <trkpt lat="45.61603" lon="2.81836">
        <ele>1287.6603878722</ele>
        <time>2015-08-21T09:32:55Z</time>
      </trkpt>
      <trkpt lat="45.6162" lon="2.81832">
        <ele>1287.0445340222</ele>
        <time>2015-08-21T09:33:08Z</time>
      </trkpt>
      <trkpt lat="45.6162" lon="2.81833">
        <ele>1287.0445340222</ele>
        <time>2015-08-21T09:33:13Z</time>
      </trkpt>
      <trkpt lat="45.61626" lon="2.81827">
        <ele>1287.0445340222</ele>
        <time>2015-08-21T09:33:15Z</time>
      </trkpt>
      <trkpt lat="45.61643" lon="2.81817">
        <ele>1285.5712857362</ele>
        <time>2015-08-21T09:33:42Z</time>
      </trkpt>
      <trkpt lat="45.61661" lon="2.81797">
        <ele>1283.5535641443</ele>
        <time>2015-08-21T09:33:55Z</time>
      </trkpt>
      <trkpt lat="45.61672" lon="2.81801">
        <ele>1281.5424391251</ele>
        <time>2015-08-21T09:34:14Z</time>
      </trkpt>
      <trkpt lat="45.61675" lon="2.81804">
        <ele>1281.5424391251</ele>
        <time>2015-08-21T09:34:20Z</time>
      </trkpt>
      <trkpt lat="45.61688" lon="2.81812">
        <ele>1279.1983994547</ele>
        <time>2015-08-21T09:34:39Z</time>
      </trkpt>
      <trkpt lat="45.6169" lon="2.81812">
        <ele>1279.1983994547</ele>
        <time>2015-08-21T09:34:40Z</time>
      </trkpt>
      <trkpt lat="45.61721" lon="2.81825">
        <ele>1276.6546926471</ele>
        <time>2015-08-21T09:35:12Z</time>
      </trkpt>
      <trkpt lat="45.61736" lon="2.81821">
        <ele>1274.1939662605</ele>
        <time>2015-08-21T09:35:15Z</time>
      </trkpt>
      <trkpt lat="45.61746" lon="2.81817">
        <ele>1271.8617786686</ele>
        <time>2015-08-21T09:35:28Z</time>
      </trkpt>
      <trkpt lat="45.61762" lon="2.81809">
        <ele>1269.455034627</ele>
        <time>2015-08-21T09:35:48Z</time>
      </trkpt>
      <trkpt lat="45.61785" lon="2.81814">
        <ele>1267.1604706396</ele>
        <time>2015-08-21T09:36:01Z</time>
      </trkpt>
      <trkpt lat="45.61787" lon="2.81814">
        <ele>1267.1604706396</ele>
        <time>2015-08-21T09:36:13Z</time>
      </trkpt>
      <trkpt lat="45.61795" lon="2.81818">
        <ele>1264.8913793312</ele>
        <time>2015-08-21T09:36:15Z</time>
      </trkpt>
      <trkpt lat="45.61803" lon="2.81818">
        <ele>1264.8913793312</ele>
        <time>2015-08-21T09:36:24Z</time>
      </trkpt>
      <trkpt lat="45.61804" lon="2.81819">
        <ele>1264.8913793312</ele>
        <time>2015-08-21T09:36:25Z</time>
      </trkpt>
      <trkpt lat="45.61821" lon="2.81838">
        <ele>1262.2935044978</ele>
        <time>2015-08-21T09:36:45Z</time>
      </trkpt>
      <trkpt lat="45.61831" lon="2.81841">
        <ele>1259.7456224973</ele>
        <time>2015-08-21T09:37:00Z</time>
      </trkpt>
      <trkpt lat="45.61851" lon="2.81851">
        <ele>1257.1517212345</ele>
        <time>2015-08-21T09:37:13Z</time>
      </trkpt>
      <trkpt lat="45.61851" lon="2.81855">
        <ele>1257.1517212345</ele>
        <time>2015-08-21T09:37:15Z</time>
      </trkpt>
      <trkpt lat="45.61853" lon="2.81861">
        <ele>1257.1517212345</ele>
        <time>2015-08-21T09:37:23Z</time>
      </trkpt>
      <trkpt lat="45.61866" lon="2.81882">
        <ele>1254.4516941735</ele>
        <time>2015-08-21T09:37:40Z</time>
      </trkpt>
      <trkpt lat="45.61869" lon="2.81935">
        <ele>1251.3882742116</ele>
        <time>2015-08-21T09:38:11Z</time>
      </trkpt>
      <trkpt lat="45.61868" lon="2.81943">
        <ele>1251.3882742116</ele>
        <time>2015-08-21T09:38:15Z</time>
      </trkpt>
      <trkpt lat="45.61866" lon="2.81984">
        <ele>1247.940142236</ele>
        <time>2015-08-21T09:38:40Z</time>
      </trkpt>
      <trkpt lat="45.61865" lon="2.81993">
        <ele>1247.940142236</ele>
        <time>2015-08-21T09:38:50Z</time>
      </trkpt>
      <trkpt lat="45.61868" lon="2.82046">
        <ele>1244.2181686221</ele>
        <time>2015-08-21T09:39:14Z</time>
      </trkpt>
      <trkpt lat="45.61864" lon="2.82053">
        <ele>1244.2181686221</ele>
        <time>2015-08-21T09:39:29Z</time>
      </trkpt>
      <trkpt lat="45.61851" lon="2.82071">
        <ele>1240.6715395915</ele>
        <time>2015-08-21T09:39:46Z</time>
      </trkpt>
      <trkpt lat="45.61843" lon="2.8212">
        <ele>1237.3266595859</ele>
        <time>2015-08-21T09:40:08Z</time>
      </trkpt>
      <trkpt lat="45.61844" lon="2.82121">
        <ele>1237.3266595859</ele>
        <time>2015-08-21T09:40:12Z</time>
      </trkpt>
      <trkpt lat="45.61848" lon="2.82129">
        <ele>1237.3266595859</ele>
        <time>2015-08-21T09:40:16Z</time>
      </trkpt>
      <trkpt lat="45.6187" lon="2.82157">
        <ele>1234.3080964805</ele>
        <time>2015-08-21T09:40:45Z</time>
      </trkpt>
      <trkpt lat="45.61884" lon="2.82198">
        <ele>1232.3642209877</ele>
        <time>2015-08-21T09:41:19Z</time>
      </trkpt>
      <trkpt lat="45.61885" lon="2.82202">
        <ele>1232.3642209877</ele>
        <time>2015-08-21T09:41:20Z</time>
      </trkpt>
      <trkpt lat="45.61878" lon="2.82222">
        <ele>1231.1331764896</ele>
        <time>2015-08-21T09:41:44Z</time>
      </trkpt>
      <trkpt lat="45.61876" lon="2.82224">
        <ele>1231.1331764896</ele>
        <time>2015-08-21T09:41:46Z</time>
      </trkpt>
      <trkpt lat="45.61874" lon="2.82226">
        <ele>1231.1331764896</ele>
        <time>2015-08-21T09:41:53Z</time>
      </trkpt>
      <trkpt lat="45.6187" lon="2.8223">
        <ele>1230.1621731671</ele>
        <time>2015-08-21T09:42:00Z</time>
      </trkpt>
      <trkpt lat="45.61877" lon="2.82236">
        <ele>1230.1621731671</ele>
        <time>2015-08-21T09:42:15Z</time>
      </trkpt>
      <trkpt lat="45.61877" lon="2.82234">
        <ele>1229.3045433322</ele>
        <time>2015-08-21T09:42:20Z</time>
      </trkpt>
      <trkpt lat="45.61906" lon="2.82232">
        <ele>1229.0003086568</ele>
        <time>2015-08-21T09:43:09Z</time>
      </trkpt>
      <trkpt lat="45.61915" lon="2.82229">
        <ele>1229.0003086568</ele>
        <time>2015-08-21T09:43:15Z</time>
      </trkpt>
      <trkpt lat="45.6192" lon="2.82228">
        <ele>1228.6178149446</ele>
        <time>2015-08-21T09:43:20Z</time>
      </trkpt>
      <trkpt lat="45.61926" lon="2.82228">
        <ele>1228.6178149446</ele>
        <time>2015-08-21T09:43:25Z</time>
      </trkpt>
      <trkpt lat="45.61961" lon="2.82205">
        <ele>1228.2203428127</ele>
        <time>2015-08-21T09:44:14Z</time>
      </trkpt>
      <trkpt lat="45.61964" lon="2.82163">
        <ele>1227.7655164786</ele>
        <time>2015-08-21T09:45:00Z</time>
      </trkpt>
      <trkpt lat="45.61972" lon="2.82136">
        <ele>1227.4446538452</ele>
        <time>2015-08-21T09:45:15Z</time>
      </trkpt>
      <trkpt lat="45.61979" lon="2.82132">
        <ele>1227.4446538452</ele>
        <time>2015-08-21T09:45:24Z</time>
      </trkpt>
      <trkpt lat="45.62017" lon="2.82105">
        <ele>1227.4489100081</ele>
        <time>2015-08-21T09:46:20Z</time>
      </trkpt>
      <trkpt lat="45.62027" lon="2.82096">
        <ele>1227.7237783667</ele>
        <time>2015-08-21T09:46:27Z</time>
      </trkpt>
      <trkpt lat="45.62032" lon="2.82092">
        <ele>1227.7237783667</ele>
        <time>2015-08-21T09:46:30Z</time>
      </trkpt>
      <trkpt lat="45.62036" lon="2.82085">
        <ele>1228.2467051253</ele>
        <time>2015-08-21T09:46:35Z</time>
      </trkpt>
      <trkpt lat="45.62053" lon="2.82056">
        <ele>1229.2265779828</ele>
        <time>2015-08-21T09:47:14Z</time>
      </trkpt>
      <trkpt lat="45.62053" lon="2.82057">
        <ele>1229.2265779828</ele>
        <time>2015-08-21T09:47:27Z</time>
      </trkpt>
      <trkpt lat="45.62059" lon="2.82051">
        <ele>1229.2265779828</ele>
        <time>2015-08-21T09:47:38Z</time>
      </trkpt>
      <trkpt lat="45.62084" lon="2.82056">
        <ele>1230.3944234324</ele>
        <time>2015-08-21T09:47:53Z</time>
      </trkpt>
      <trkpt lat="45.62085" lon="2.82056">
        <ele>1230.3944234324</ele>
        <time>2015-08-21T09:47:55Z</time>
      </trkpt>
      <trkpt lat="45.62107" lon="2.82068">
        <ele>1231.6445510935</ele>
        <time>2015-08-21T09:48:16Z</time>
      </trkpt>
      <trkpt lat="45.62109" lon="2.82066">
        <ele>1231.6445510935</ele>
        <time>2015-08-21T09:48:29Z</time>
      </trkpt>
      <trkpt lat="45.62118" lon="2.82061">
        <ele>1232.950819952</ele>
        <time>2015-08-21T09:48:29Z</time>
      </trkpt>
      <trkpt lat="45.62119" lon="2.82061">
        <ele>1232.950819952</ele>
        <time>2015-08-21T09:48:30Z</time>
      </trkpt>
      <trkpt lat="45.62156" lon="2.8207">
        <ele>1234.2455989383</ele>
        <time>2015-08-21T09:49:17Z</time>
      </trkpt>
      <trkpt lat="45.62176" lon="2.82076">
        <ele>1236.2012248298</ele>
        <time>2015-08-21T09:49:20Z</time>
      </trkpt>
      <trkpt lat="45.62181" lon="2.82077">
        <ele>1236.2012248298</ele>
        <time>2015-08-21T09:49:33Z</time>
      </trkpt>
      <trkpt lat="45.62212" lon="2.82084">
        <ele>1238.6894340543</ele>
        <time>2015-08-21T09:50:17Z</time>
      </trkpt>
      <trkpt lat="45.62233" lon="2.82095">
        <ele>1242.5266581572</ele>
        <time>2015-08-21T09:50:20Z</time>
      </trkpt>
      <trkpt lat="45.62239" lon="2.82086">
        <ele>1242.5266581572</ele>
        <time>2015-08-21T09:50:42Z</time>
      </trkpt>
      <trkpt lat="45.62244" lon="2.82108">
        <ele>1247.0389404246</ele>
        <time>2015-08-21T09:51:20Z</time>
      </trkpt>
      <trkpt lat="45.62244" lon="2.82109">
        <ele>1247.0389404246</ele>
        <time>2015-08-21T09:51:20Z</time>
      </trkpt>
      <trkpt lat="45.6224" lon="2.82114">
        <ele>1247.0389404246</ele>
        <time>2015-08-21T09:51:33Z</time>
      </trkpt>
      <trkpt lat="45.62241" lon="2.82117">
        <ele>1247.0389404246</ele>
        <time>2015-08-21T09:51:55Z</time>
      </trkpt>
      <trkpt lat="45.62237" lon="2.82115">
        <ele>1252.032374674</ele>
        <time>2015-08-21T09:52:25Z</time>
      </trkpt>
      <trkpt lat="45.62184" lon="2.82082">
        <ele>1256.4758284689</ele>
        <time>2015-08-21T09:53:30Z</time>
      </trkpt>
      <trkpt lat="45.62113" lon="2.82065">
        <ele>1260.2658819045</ele>
        <time>2015-08-21T09:54:30Z</time>
      </trkpt>
      <trkpt lat="45.62107" lon="2.82067">
        <ele>1260.2658819045</ele>
        <time>2015-08-21T09:54:30Z</time>
      </trkpt>
      <trkpt lat="45.62112" lon="2.821">
        <ele>1263.5825521697</ele>
        <time>2015-08-21T09:54:50Z</time>
      </trkpt>
      <trkpt lat="45.62131" lon="2.82136">
        <ele>1266.5653565402</ele>
        <time>2015-08-21T09:55:16Z</time>
      </trkpt>
      <trkpt lat="45.62132" lon="2.82137">
        <ele>1266.5653565402</ele>
        <time>2015-08-21T09:55:22Z</time>
      </trkpt>
      <trkpt lat="45.62135" lon="2.82142">
        <ele>1266.5653565402</ele>
        <time>2015-08-21T09:55:25Z</time>
      </trkpt>
      <trkpt lat="45.62152" lon="2.82188">
        <ele>1269.5464906694</ele>
        <time>2015-08-21T09:56:11Z</time>
      </trkpt>
      <trkpt lat="45.62157" lon="2.82199">
        <ele>1272.35843207</ele>
        <time>2015-08-21T09:56:25Z</time>
      </trkpt>
      <trkpt lat="45.62159" lon="2.82206">
        <ele>1272.35843207</ele>
        <time>2015-08-21T09:56:37Z</time>
      </trkpt>
      <trkpt lat="45.62164" lon="2.82216">
        <ele>1275.0052166274</ele>
        <time>2015-08-21T09:56:37Z</time>
      </trkpt>
      <trkpt lat="45.62164" lon="2.82219">
        <ele>1275.0052166274</ele>
        <time>2015-08-21T09:56:42Z</time>
      </trkpt>
      <trkpt lat="45.62167" lon="2.82241">
        <ele>1277.4624858422</ele>
        <time>2015-08-21T09:57:00Z</time>
      </trkpt>
      <trkpt lat="45.62165" lon="2.82265">
        <ele>1280.0399226263</ele>
        <time>2015-08-21T09:57:25Z</time>
      </trkpt>
      <trkpt lat="45.62153" lon="2.82319">
        <ele>1282.7505792384</ele>
        <time>2015-08-21T09:58:15Z</time>
      </trkpt>
      <trkpt lat="45.62145" lon="2.82339">
        <ele>1285.4046873966</ele>
        <time>2015-08-21T09:58:25Z</time>
      </trkpt>
      <trkpt lat="45.62131" lon="2.82375">
        <ele>1287.9277230737</ele>
        <time>2015-08-21T09:58:57Z</time>
      </trkpt>
      <trkpt lat="45.62122" lon="2.82396">
        <ele>1290.4674379906</ele>
        <time>2015-08-21T09:59:11Z</time>
      </trkpt>
      <trkpt lat="45.6212" lon="2.824">
        <ele>1290.4674379906</ele>
        <time>2015-08-21T09:59:22Z</time>
      </trkpt>
      <trkpt lat="45.62114" lon="2.82414">
        <ele>1292.9015481935</ele>
        <time>2015-08-21T09:59:25Z</time>
      </trkpt>
      <trkpt lat="45.62109" lon="2.82453">
        <ele>1295.5208224986</ele>
        <time>2015-08-21T09:59:56Z</time>
      </trkpt>
      <trkpt lat="45.62105" lon="2.82481">
        <ele>1298.1188426999</ele>
        <time>2015-08-21T10:00:16Z</time>
      </trkpt>
      <trkpt lat="45.62103" lon="2.8249">
        <ele>1298.1188426999</ele>
        <time>2015-08-21T10:00:24Z</time>
      </trkpt>
      <trkpt lat="45.62103" lon="2.82491">
        <ele>1298.1188426999</ele>
        <time>2015-08-21T10:00:25Z</time>
      </trkpt>
      <trkpt lat="45.62091" lon="2.82527">
        <ele>1300.8649469913</ele>
        <time>2015-08-21T10:00:54Z</time>
      </trkpt>
      <trkpt lat="45.62088" lon="2.82532">
        <ele>1300.8649469913</ele>
        <time>2015-08-21T10:01:00Z</time>
      </trkpt>
      <trkpt lat="45.62088" lon="2.82537">
        <ele>1300.8649469913</ele>
        <time>2015-08-21T10:01:12Z</time>
      </trkpt>
      <trkpt lat="45.62084" lon="2.82556">
        <ele>1303.6997039641</ele>
        <time>2015-08-21T10:01:21Z</time>
      </trkpt>
      <trkpt lat="45.62082" lon="2.82564">
        <ele>1303.6997039641</ele>
        <time>2015-08-21T10:01:25Z</time>
      </trkpt>
      <trkpt lat="45.62081" lon="2.82565">
        <ele>1303.6997039641</ele>
        <time>2015-08-21T10:01:36Z</time>
      </trkpt>
      <trkpt lat="45.62075" lon="2.82583">
        <ele>1306.4815812529</ele>
        <time>2015-08-21T10:01:50Z</time>
      </trkpt>
      <trkpt lat="45.62074" lon="2.82612">
        <ele>1309.1230699475</ele>
        <time>2015-08-21T10:02:20Z</time>
      </trkpt>
      <trkpt lat="45.62056" lon="2.82661">
        <ele>1312.1345804868</ele>
        <time>2015-08-21T10:02:50Z</time>
      </trkpt>
      <trkpt lat="45.62037" lon="2.82692">
        <ele>1315.5414845542</ele>
        <time>2015-08-21T10:03:23Z</time>
      </trkpt>
      <trkpt lat="45.62036" lon="2.82692">
        <ele>1315.5414845542</ele>
        <time>2015-08-21T10:03:25Z</time>
      </trkpt>
      <trkpt lat="45.62031" lon="2.82697">
        <ele>1315.5414845542</ele>
        <time>2015-08-21T10:03:34Z</time>
      </trkpt>
      <trkpt lat="45.62024" lon="2.82702">
        <ele>1318.8476162075</ele>
        <time>2015-08-21T10:03:42Z</time>
      </trkpt>
      <trkpt lat="45.62002" lon="2.82733">
        <ele>1322.2855075965</ele>
        <time>2015-08-21T10:04:11Z</time>
      </trkpt>
      <trkpt lat="45.61996" lon="2.82763">
        <ele>1325.868716799</ele>
        <time>2015-08-21T10:04:25Z</time>
      </trkpt>
      <trkpt lat="45.61995" lon="2.82774">
        <ele>1325.868716799</ele>
        <time>2015-08-21T10:04:30Z</time>
      </trkpt>
      <trkpt lat="45.61998" lon="2.82824">
        <ele>1329.6384529724</ele>
        <time>2015-08-21T10:04:56Z</time>
      </trkpt>
      <trkpt lat="45.61998" lon="2.82832">
        <ele>1329.6384529724</ele>
        <time>2015-08-21T10:05:05Z</time>
      </trkpt>
      <trkpt lat="45.62009" lon="2.82871">
        <ele>1334.2811086647</ele>
        <time>2015-08-21T10:05:25Z</time>
      </trkpt>
      <trkpt lat="45.62008" lon="2.82875">
        <ele>1334.2811086647</ele>
        <time>2015-08-21T10:05:31Z</time>
      </trkpt>
      <trkpt lat="45.62007" lon="2.82879">
        <ele>1334.2811086647</ele>
        <time>2015-08-21T10:05:37Z</time>
      </trkpt>
      <trkpt lat="45.62015" lon="2.82902">
        <ele>1339.2919640249</ele>
        <time>2015-08-21T10:06:11Z</time>
      </trkpt>
      <trkpt lat="45.62016" lon="2.82909">
        <ele>1339.2919640249</ele>
        <time>2015-08-21T10:06:24Z</time>
      </trkpt>
      <trkpt lat="45.62022" lon="2.82917">
        <ele>1344.0584726477</ele>
        <time>2015-08-21T10:06:25Z</time>
      </trkpt>
      <trkpt lat="45.62032" lon="2.82915">
        <ele>1348.4463506723</ele>
        <time>2015-08-21T10:06:32Z</time>
      </trkpt>
      <trkpt lat="45.62039" lon="2.82909">
        <ele>1348.4463506723</ele>
        <time>2015-08-21T10:06:53Z</time>
      </trkpt>
      <trkpt lat="45.62046" lon="2.8292">
        <ele>1352.8657034261</ele>
        <time>2015-08-21T10:07:21Z</time>
      </trkpt>
      <trkpt lat="45.62048" lon="2.82923">
        <ele>1352.8657034261</ele>
        <time>2015-08-21T10:07:27Z</time>
      </trkpt>
      <trkpt lat="45.62049" lon="2.82925">
        <ele>1352.8657034261</ele>
        <time>2015-08-21T10:07:30Z</time>
      </trkpt>
      <trkpt lat="45.62061" lon="2.82951">
        <ele>1357.1202313205</ele>
        <time>2015-08-21T10:08:13Z</time>
      </trkpt>
      <trkpt lat="45.62068" lon="2.82972">
        <ele>1361.4755167602</ele>
        <time>2015-08-21T10:09:01Z</time>
      </trkpt>
      <trkpt lat="45.62071" lon="2.82978">
        <ele>1361.4755167602</ele>
        <time>2015-08-21T10:09:27Z</time>
      </trkpt>
      <trkpt lat="45.62073" lon="2.82982">
        <ele>1361.4755167602</ele>
        <time>2015-08-21T10:09:31Z</time>
      </trkpt>
      <trkpt lat="45.62074" lon="2.82984">
        <ele>1365.4138143144</ele>
        <time>2015-08-21T10:09:40Z</time>
      </trkpt>
      <trkpt lat="45.62098" lon="2.83038">
        <ele>1369.3503216494</ele>
        <time>2015-08-21T10:10:30Z</time>
      </trkpt>
      <trkpt lat="45.62102" lon="2.83051">
        <ele>1372.7620866817</ele>
        <time>2015-08-21T10:11:17Z</time>
      </trkpt>
      <trkpt lat="45.62123" lon="2.83088">
        <ele>1376.2038845214</ele>
        <time>2015-08-21T10:11:32Z</time>
      </trkpt>
      <trkpt lat="45.62124" lon="2.8309">
        <ele>1376.2038845214</ele>
        <time>2015-08-21T10:11:37Z</time>
      </trkpt>
      <trkpt lat="45.62143" lon="2.83138">
        <ele>1379.9160722273</ele>
        <time>2015-08-21T10:12:27Z</time>
      </trkpt>
      <trkpt lat="45.62144" lon="2.8314">
        <ele>1379.9160722273</ele>
        <time>2015-08-21T10:12:32Z</time>
      </trkpt>
      <trkpt lat="45.62145" lon="2.83143">
        <ele>1379.9160722273</ele>
        <time>2015-08-21T10:12:42Z</time>
      </trkpt>
      <trkpt lat="45.62146" lon="2.83144">
        <ele>1379.9160722273</ele>
        <time>2015-08-21T10:13:29Z</time>
      </trkpt>
      <trkpt lat="45.62153" lon="2.83146">
        <ele>1384.7981384144</ele>
        <time>2015-08-21T10:13:37Z</time>
      </trkpt>
      <trkpt lat="45.62155" lon="2.83144">
        <ele>1384.7981384144</ele>
        <time>2015-08-21T10:13:40Z</time>
      </trkpt>
      <trkpt lat="45.62157" lon="2.83138">
        <ele>1384.7981384144</ele>
        <time>2015-08-21T10:13:45Z</time>
      </trkpt>
      <trkpt lat="45.62171" lon="2.83131">
        <ele>1389.5619981973</ele>
        <time>2015-08-21T10:14:07Z</time>
      </trkpt>
      <trkpt lat="45.62201" lon="2.83108">
        <ele>1394.1099800711</ele>
        <time>2015-08-21T10:14:30Z</time>
      </trkpt>
      <trkpt lat="45.62326" lon="2.83082">
        <ele>1400.326732185</ele>
        <time>2015-08-21T10:16:30Z</time>
      </trkpt>
      <trkpt lat="45.62331" lon="2.83085">
        <ele>1400.326732185</ele>
        <time>2015-08-21T10:16:35Z</time>
      </trkpt>
      <trkpt lat="45.62343" lon="2.83096">
        <ele>1406.3368053191</ele>
        <time>2015-08-21T10:16:50Z</time>
      </trkpt>
      <trkpt lat="45.62345" lon="2.83099">
        <ele>1406.3368053191</ele>
        <time>2015-08-21T10:17:02Z</time>
      </trkpt>
      <trkpt lat="45.62353" lon="2.8311">
        <ele>1411.7723788976</ele>
        <time>2015-08-21T10:17:21Z</time>
      </trkpt>
      <trkpt lat="45.62368" lon="2.8313">
        <ele>1416.7700581096</ele>
        <time>2015-08-21T10:18:31Z</time>
      </trkpt>
      <trkpt lat="45.62385" lon="2.8314">
        <ele>1421.1552376198</ele>
        <time>2015-08-21T10:19:00Z</time>
      </trkpt>
      <trkpt lat="45.62388" lon="2.8314">
        <ele>1421.1552376198</ele>
        <time>2015-08-21T10:19:15Z</time>
      </trkpt>
      <trkpt lat="45.624" lon="2.83152">
        <ele>1424.753671744</ele>
        <time>2015-08-21T10:19:30Z</time>
      </trkpt>
      <trkpt lat="45.62403" lon="2.83154">
        <ele>1424.753671744</ele>
        <time>2015-08-21T10:19:35Z</time>
      </trkpt>
      <trkpt lat="45.62439" lon="2.83211">
        <ele>1427.5648611514</ele>
        <time>2015-08-21T10:20:26Z</time>
      </trkpt>
      <trkpt lat="45.62446" lon="2.83229">
        <ele>1429.792509754</ele>
        <time>2015-08-21T10:20:34Z</time>
      </trkpt>
      <trkpt lat="45.62448" lon="2.83231">
        <ele>1429.792509754</ele>
        <time>2015-08-21T10:20:37Z</time>
      </trkpt>
      <trkpt lat="45.62451" lon="2.83233">
        <ele>1429.792509754</ele>
        <time>2015-08-21T10:20:46Z</time>
      </trkpt>
      <trkpt lat="45.62474" lon="2.83243">
        <ele>1431.3965991601</ele>
        <time>2015-08-21T10:20:56Z</time>
      </trkpt>
      <trkpt lat="45.62482" lon="2.83245">
        <ele>1431.3965991601</ele>
        <time>2015-08-21T10:21:11Z</time>
      </trkpt>
      <trkpt lat="45.62497" lon="2.83246">
        <ele>1432.327546562</ele>
        <time>2015-08-21T10:21:21Z</time>
      </trkpt>
      <trkpt lat="45.62505" lon="2.83248">
        <ele>1432.327546562</ele>
        <time>2015-08-21T10:21:30Z</time>
      </trkpt>
      <trkpt lat="45.62511" lon="2.8325">
        <ele>1432.7720067371</ele>
        <time>2015-08-21T10:21:36Z</time>
      </trkpt>
      <trkpt lat="45.62512" lon="2.8325">
        <ele>1432.7720067371</ele>
        <time>2015-08-21T10:21:46Z</time>
      </trkpt>
      <trkpt lat="45.62537" lon="2.83247">
        <ele>1432.9332074775</ele>
        <time>2015-08-21T10:22:00Z</time>
      </trkpt>
      <trkpt lat="45.62559" lon="2.83248">
        <ele>1433.1011847176</ele>
        <time>2015-08-21T10:22:13Z</time>
      </trkpt>
      <trkpt lat="45.62559" lon="2.83248">
        <ele>1433.1011847176</ele>
        <time>2015-08-21T10:22:21Z</time>
      </trkpt>
      <trkpt lat="45.62574" lon="2.83264">
        <ele>1433.5158593591</ele>
        <time>2015-08-21T10:22:35Z</time>
      </trkpt>
      <trkpt lat="45.62583" lon="2.83281">
        <ele>1433.7359250677</ele>
        <time>2015-08-21T10:22:52Z</time>
      </trkpt>
      <trkpt lat="45.62597" lon="2.833">
        <ele>1433.8862222083</ele>
        <time>2015-08-21T10:23:13Z</time>
      </trkpt>
      <trkpt lat="45.62598" lon="2.83301">
        <ele>1433.8862222083</ele>
        <time>2015-08-21T10:23:15Z</time>
      </trkpt>
      <trkpt lat="45.62614" lon="2.83321">
        <ele>1433.7943377915</ele>
        <time>2015-08-21T10:23:36Z</time>
      </trkpt>
      <trkpt lat="45.62618" lon="2.83327">
        <ele>1433.7943377915</ele>
        <time>2015-08-21T10:23:50Z</time>
      </trkpt>
      <trkpt lat="45.62622" lon="2.83334">
        <ele>1433.675810869</ele>
        <time>2015-08-21T10:23:50Z</time>
      </trkpt>
      <trkpt lat="45.62633" lon="2.83344">
        <ele>1433.470915444</ele>
        <time>2015-08-21T10:24:10Z</time>
      </trkpt>
      <trkpt lat="45.62653" lon="2.83357">
        <ele>1433.2108924032</ele>
        <time>2015-08-21T10:24:36Z</time>
      </trkpt>
      <trkpt lat="45.62652" lon="2.83363">
        <ele>1433.2108924032</ele>
        <time>2015-08-21T10:25:04Z</time>
      </trkpt>
      <trkpt lat="45.62644" lon="2.8337">
        <ele>1433.4290810213</ele>
        <time>2015-08-21T10:25:26Z</time>
      </trkpt>
      <trkpt lat="45.62641" lon="2.83372">
        <ele>1433.4290810213</ele>
        <time>2015-08-21T10:25:32Z</time>
      </trkpt>
      <trkpt lat="45.6264" lon="2.83372">
        <ele>1433.4290810213</ele>
        <time>2015-08-21T10:25:35Z</time>
      </trkpt>
      <trkpt lat="45.62631" lon="2.83372">
        <ele>1433.9552205221</ele>
        <time>2015-08-21T10:26:10Z</time>
      </trkpt>
      <trkpt lat="45.6262" lon="2.83377">
        <ele>1434.5440436178</ele>
        <time>2015-08-21T10:26:29Z</time>
      </trkpt>
      <trkpt lat="45.62619" lon="2.83379">
        <ele>1434.5440436178</ele>
        <time>2015-08-21T10:26:30Z</time>
      </trkpt>
      <trkpt lat="45.62616" lon="2.83381">
        <ele>1434.5440436178</ele>
        <time>2015-08-21T10:26:36Z</time>
      </trkpt>
      <trkpt lat="45.62614" lon="2.83382">
        <ele>1434.5440436178</ele>
        <time>2015-08-21T10:26:40Z</time>
      </trkpt>
      <trkpt lat="45.62598" lon="2.83397">
        <ele>1436.0055315796</ele>
        <time>2015-08-21T10:27:36Z</time>
      </trkpt>
      <trkpt lat="45.62596" lon="2.83402">
        <ele>1436.0055315796</ele>
        <time>2015-08-21T10:27:46Z</time>
      </trkpt>
      <trkpt lat="45.62587" lon="2.83417">
        <ele>1437.6319950718</ele>
        <time>2015-08-21T10:28:06Z</time>
      </trkpt>
      <trkpt lat="45.62582" lon="2.83422">
        <ele>1437.6319950718</ele>
        <time>2015-08-21T10:28:13Z</time>
      </trkpt>
      <trkpt lat="45.62579" lon="2.83425">
        <ele>1439.1994005921</ele>
        <time>2015-08-21T10:28:23Z</time>
      </trkpt>
      <trkpt lat="45.62567" lon="2.83443">
        <ele>1440.8315927365</ele>
        <time>2015-08-21T10:28:35Z</time>
      </trkpt>
      <trkpt lat="45.62558" lon="2.83459">
        <ele>1442.3114829371</ele>
        <time>2015-08-21T10:29:32Z</time>
      </trkpt>
      <trkpt lat="45.6254" lon="2.83483">
        <ele>1444.6775193587</ele>
        <time>2015-08-21T10:29:39Z</time>
      </trkpt>
      <trkpt lat="45.62504" lon="2.83546">
        <ele>1447.6786596358</ele>
        <time>2015-08-21T10:30:37Z</time>
      </trkpt>
      <trkpt lat="45.62502" lon="2.83548">
        <ele>1447.6786596358</ele>
        <time>2015-08-21T10:30:48Z</time>
      </trkpt>
      <trkpt lat="45.62493" lon="2.83549">
        <ele>1450.705654372</ele>
        <time>2015-08-21T10:31:04Z</time>
      </trkpt>
      <trkpt lat="45.62493" lon="2.83519">
        <ele>1453.9143271261</ele>
        <time>2015-08-21T10:31:32Z</time>
      </trkpt>
      <trkpt lat="45.62492" lon="2.83512">
        <ele>1453.9143271261</ele>
        <time>2015-08-21T10:31:35Z</time>
      </trkpt>
      <trkpt lat="45.62481" lon="2.83491">
        <ele>1457.4051614248</ele>
        <time>2015-08-21T10:32:20Z</time>
      </trkpt>
      <trkpt lat="45.62466" lon="2.83477">
        <ele>1461.0829893859</ele>
        <time>2015-08-21T10:32:33Z</time>
      </trkpt>
      <trkpt lat="45.62466" lon="2.83477">
        <ele>1461.0829893859</ele>
        <time>2015-08-21T10:32:35Z</time>
      </trkpt>
      <trkpt lat="45.6246" lon="2.83486">
        <ele>1464.5563586501</ele>
        <time>2015-08-21T10:33:06Z</time>
      </trkpt>
      <trkpt lat="45.62449" lon="2.83491">
        <ele>1467.6215669026</ele>
        <time>2015-08-21T10:33:33Z</time>
      </trkpt>
      <trkpt lat="45.62449" lon="2.83492">
        <ele>1467.6215669026</ele>
        <time>2015-08-21T10:33:38Z</time>
      </trkpt>
      <trkpt lat="45.63022" lon="2.85354">
        <ele>1377.9046252678</ele>
        <time>2015-08-21T11:38:18Z</time>
      </trkpt>
      <trkpt lat="45.63015" lon="2.85352">
        <ele>1377.9046252678</ele>
        <time>2015-08-21T11:38:23Z</time>
      </trkpt>
      <trkpt lat="45.63021" lon="2.85346">
        <ele>1377.1729324086</ele>
        <time>2015-08-21T11:38:48Z</time>
      </trkpt>
      <trkpt lat="45.63026" lon="2.85348">
        <ele>1377.1729324086</ele>
        <time>2015-08-21T11:38:53Z</time>
      </trkpt>
      <trkpt lat="45.63032" lon="2.85349">
        <ele>1380.9864787374</ele>
        <time>2015-08-21T11:38:58Z</time>
      </trkpt>
      <trkpt lat="45.63039" lon="2.85352">
        <ele>1380.9864787374</ele>
        <time>2015-08-21T11:39:03Z</time>
      </trkpt>
      <trkpt lat="45.63056" lon="2.85357">
        <ele>1385.3320672644</ele>
        <time>2015-08-21T11:39:18Z</time>
      </trkpt>
      <trkpt lat="45.63084" lon="2.85369">
        <ele>1389.4346933217</ele>
        <time>2015-08-21T11:39:42Z</time>
      </trkpt>
      <trkpt lat="45.63085" lon="2.8537">
        <ele>1389.4346933217</ele>
        <time>2015-08-21T11:39:43Z</time>
      </trkpt>
      <trkpt lat="45.63109" lon="2.85374">
        <ele>1392.7626526109</ele>
        <time>2015-08-21T11:40:07Z</time>
      </trkpt>
      <trkpt lat="45.63135" lon="2.8538">
        <ele>1395.283552534</ele>
        <time>2015-08-21T11:40:33Z</time>
      </trkpt>
      <trkpt lat="45.6314" lon="2.8538">
        <ele>1395.283552534</ele>
        <time>2015-08-21T11:40:34Z</time>
      </trkpt>
      <trkpt lat="45.63148" lon="2.8538">
        <ele>1397.3464009703</ele>
        <time>2015-08-21T11:40:42Z</time>
      </trkpt>
      <trkpt lat="45.6315" lon="2.85381">
        <ele>1397.3464009703</ele>
        <time>2015-08-21T11:40:43Z</time>
      </trkpt>
      <trkpt lat="45.63156" lon="2.85385">
        <ele>1397.3464009703</ele>
        <time>2015-08-21T11:40:58Z</time>
      </trkpt>
      <trkpt lat="45.63178" lon="2.85391">
        <ele>1398.8864246759</ele>
        <time>2015-08-21T11:41:10Z</time>
      </trkpt>
      <trkpt lat="45.63198" lon="2.85393">
        <ele>1399.7637861368</ele>
        <time>2015-08-21T11:41:33Z</time>
      </trkpt>
      <trkpt lat="45.6321" lon="2.85396">
        <ele>1400.0355052314</ele>
        <time>2015-08-21T11:41:44Z</time>
      </trkpt>
      <trkpt lat="45.63213" lon="2.85395">
        <ele>1400.0355052314</ele>
        <time>2015-08-21T11:41:56Z</time>
      </trkpt>
      <trkpt lat="45.63232" lon="2.85402">
        <ele>1400.0419713127</ele>
        <time>2015-08-21T11:42:09Z</time>
      </trkpt>
      <trkpt lat="45.63256" lon="2.85409">
        <ele>1399.7711656425</ele>
        <time>2015-08-21T11:42:39Z</time>
      </trkpt>
      <trkpt lat="45.63266" lon="2.85411">
        <ele>1399.0635869384</ele>
        <time>2015-08-21T11:42:43Z</time>
      </trkpt>
      <trkpt lat="45.63293" lon="2.8541">
        <ele>1398.1949134467</ele>
        <time>2015-08-21T11:43:07Z</time>
      </trkpt>
      <trkpt lat="45.63321" lon="2.85414">
        <ele>1397.1612133525</ele>
        <time>2015-08-21T11:43:29Z</time>
      </trkpt>
      <trkpt lat="45.63337" lon="2.85418">
        <ele>1396.0804069713</ele>
        <time>2015-08-21T11:43:43Z</time>
      </trkpt>
      <trkpt lat="45.63365" lon="2.85418">
        <ele>1395.1102315878</ele>
        <time>2015-08-21T11:44:07Z</time>
      </trkpt>
      <trkpt lat="45.63376" lon="2.85419">
        <ele>1394.0587938967</ele>
        <time>2015-08-21T11:44:18Z</time>
      </trkpt>
      <trkpt lat="45.634" lon="2.85428">
        <ele>1393.0317080886</ele>
        <time>2015-08-21T11:44:40Z</time>
      </trkpt>
      <trkpt lat="45.63404" lon="2.85428">
        <ele>1393.0317080886</ele>
        <time>2015-08-21T11:44:43Z</time>
      </trkpt>
      <trkpt lat="45.63408" lon="2.85428">
        <ele>1393.0317080886</ele>
        <time>2015-08-21T11:44:48Z</time>
      </trkpt>
      <trkpt lat="45.63462" lon="2.85436">
        <ele>1392.0512030289</ele>
        <time>2015-08-21T11:45:35Z</time>
      </trkpt>
      <trkpt lat="45.63503" lon="2.85433">
        <ele>1391.1145755203</ele>
        <time>2015-08-21T11:46:07Z</time>
      </trkpt>
      <trkpt lat="45.63521" lon="2.85444">
        <ele>1390.1989483641</ele>
        <time>2015-08-21T11:46:29Z</time>
      </trkpt>
      <trkpt lat="45.63537" lon="2.85445">
        <ele>1389.0141149787</ele>
        <time>2015-08-21T11:46:44Z</time>
      </trkpt>
      <trkpt lat="45.63541" lon="2.85446">
        <ele>1389.0141149787</ele>
        <time>2015-08-21T11:46:49Z</time>
      </trkpt>
      <trkpt lat="45.63602" lon="2.85445">
        <ele>1387.7394299641</ele>
        <time>2015-08-21T11:47:48Z</time>
      </trkpt>
      <trkpt lat="45.63678" lon="2.85467">
        <ele>1387.451211861</ele>
        <time>2015-08-21T11:48:44Z</time>
      </trkpt>
      <trkpt lat="45.6373" lon="2.85475">
        <ele>1387.8635177891</ele>
        <time>2015-08-21T11:49:49Z</time>
      </trkpt>
      <trkpt lat="45.63734" lon="2.85476">
        <ele>1387.8635177891</ele>
        <time>2015-08-21T11:50:00Z</time>
      </trkpt>
      <trkpt lat="45.63773" lon="2.8552">
        <ele>1387.8476819537</ele>
        <time>2015-08-21T11:50:44Z</time>
      </trkpt>
      <trkpt lat="45.63774" lon="2.85523">
        <ele>1387.8476819537</ele>
        <time>2015-08-21T11:50:48Z</time>
      </trkpt>
      <trkpt lat="45.63775" lon="2.85528">
        <ele>1387.8476819537</ele>
        <time>2015-08-21T11:51:00Z</time>
      </trkpt>
      <trkpt lat="45.63784" lon="2.85563">
        <ele>1386.5292731181</ele>
        <time>2015-08-21T11:51:49Z</time>
      </trkpt>
      <trkpt lat="45.63785" lon="2.85566">
        <ele>1386.5292731181</ele>
        <time>2015-08-21T11:51:58Z</time>
      </trkpt>
      <trkpt lat="45.63787" lon="2.85614">
        <ele>1384.7296527216</ele>
        <time>2015-08-21T11:52:18Z</time>
      </trkpt>
      <trkpt lat="45.63785" lon="2.85661">
        <ele>1382.3325874464</ele>
        <time>2015-08-21T11:52:47Z</time>
      </trkpt>
      <trkpt lat="45.63785" lon="2.85663">
        <ele>1382.3325874464</ele>
        <time>2015-08-21T11:52:48Z</time>
      </trkpt>
      <trkpt lat="45.63785" lon="2.8567">
        <ele>1382.3325874464</ele>
        <time>2015-08-21T11:53:00Z</time>
      </trkpt>
      <trkpt lat="45.63785" lon="2.85685">
        <ele>1379.4933820218</ele>
        <time>2015-08-21T11:53:06Z</time>
      </trkpt>
      <trkpt lat="45.63784" lon="2.85686">
        <ele>1379.4933820218</ele>
        <time>2015-08-21T11:53:10Z</time>
      </trkpt>
      <trkpt lat="45.63785" lon="2.85741">
        <ele>1375.4944771105</ele>
        <time>2015-08-21T11:53:47Z</time>
      </trkpt>
      <trkpt lat="45.63785" lon="2.85742">
        <ele>1375.4944771105</ele>
        <time>2015-08-21T11:53:47Z</time>
      </trkpt>
      <trkpt lat="45.63784" lon="2.85743">
        <ele>1375.4944771105</ele>
        <time>2015-08-21T11:53:48Z</time>
      </trkpt>
      <trkpt lat="45.63783" lon="2.85753">
        <ele>1375.4944771105</ele>
        <time>2015-08-21T11:54:48Z</time>
      </trkpt>
      <trkpt lat="45.63784" lon="2.85766">
        <ele>1370.1400182863</ele>
        <time>2015-08-21T11:55:26Z</time>
      </trkpt>
      <trkpt lat="45.63782" lon="2.85801">
        <ele>1365.0178774566</ele>
        <time>2015-08-21T11:55:45Z</time>
      </trkpt>
      <trkpt lat="45.63782" lon="2.85802">
        <ele>1365.0178774566</ele>
        <time>2015-08-21T11:55:46Z</time>
      </trkpt>
      <trkpt lat="45.63782" lon="2.85804">
        <ele>1365.0178774566</ele>
        <time>2015-08-21T11:55:48Z</time>
      </trkpt>
      <trkpt lat="45.63782" lon="2.8581">
        <ele>1365.0178774566</ele>
        <time>2015-08-21T11:56:01Z</time>
      </trkpt>
      <trkpt lat="45.63779" lon="2.85861">
        <ele>1359.885372898</ele>
        <time>2015-08-21T11:56:47Z</time>
      </trkpt>
      <trkpt lat="45.63779" lon="2.85863">
        <ele>1359.885372898</ele>
        <time>2015-08-21T11:56:48Z</time>
      </trkpt>
      <trkpt lat="45.6378" lon="2.85866">
        <ele>1359.885372898</ele>
        <time>2015-08-21T11:57:00Z</time>
      </trkpt>
      <trkpt lat="45.63778" lon="2.85918">
        <ele>1352.8963371986</ele>
        <time>2015-08-21T11:57:47Z</time>
      </trkpt>
      <trkpt lat="45.63778" lon="2.85919">
        <ele>1352.8963371986</ele>
        <time>2015-08-21T11:57:48Z</time>
      </trkpt>
      <trkpt lat="45.63784" lon="2.85936">
        <ele>1345.3274172752</ele>
        <time>2015-08-21T11:58:22Z</time>
      </trkpt>
      <trkpt lat="45.63792" lon="2.8594">
        <ele>1345.3274172752</ele>
        <time>2015-08-21T11:58:35Z</time>
      </trkpt>
      <trkpt lat="45.638" lon="2.85938">
        <ele>1337.4371178598</ele>
        <time>2015-08-21T11:58:48Z</time>
      </trkpt>
      <trkpt lat="45.63807" lon="2.85942">
        <ele>1337.4371178598</ele>
        <time>2015-08-21T11:58:54Z</time>
      </trkpt>
      <trkpt lat="45.63831" lon="2.85942">
        <ele>1329.2732156828</ele>
        <time>2015-08-21T11:59:38Z</time>
      </trkpt>
      <trkpt lat="45.63872" lon="2.85946">
        <ele>1319.7840146911</ele>
        <time>2015-08-21T11:59:49Z</time>
      </trkpt>
      <trkpt lat="45.63877" lon="2.85947">
        <ele>1319.7840146911</ele>
        <time>2015-08-21T11:59:53Z</time>
      </trkpt>
      <trkpt lat="45.63937" lon="2.8596">
        <ele>1308.8803495134</ele>
        <time>2015-08-21T12:00:49Z</time>
      </trkpt>
      <trkpt lat="45.6394" lon="2.85962">
        <ele>1308.8803495134</ele>
        <time>2015-08-21T12:01:01Z</time>
      </trkpt>
      <trkpt lat="45.63953" lon="2.85964">
        <ele>1298.4500456127</ele>
        <time>2015-08-21T12:01:04Z</time>
      </trkpt>
      <trkpt lat="45.64007" lon="2.85979">
        <ele>1287.5946508836</ele>
        <time>2015-08-21T12:01:50Z</time>
      </trkpt>
      <trkpt lat="45.64014" lon="2.85981">
        <ele>1287.5946508836</ele>
        <time>2015-08-21T12:02:04Z</time>
      </trkpt>
      <trkpt lat="45.64078" lon="2.86002">
        <ele>1276.2222711132</ele>
        <time>2015-08-21T12:02:53Z</time>
      </trkpt>
      <trkpt lat="45.64101" lon="2.86006">
        <ele>1265.6184468255</ele>
        <time>2015-08-21T12:03:20Z</time>
      </trkpt>
      <trkpt lat="45.64137" lon="2.86012">
        <ele>1255.2653417361</ele>
        <time>2015-08-21T12:03:43Z</time>
      </trkpt>
      <trkpt lat="45.64143" lon="2.86013">
        <ele>1255.2653417361</ele>
        <time>2015-08-21T12:03:48Z</time>
      </trkpt>
      <trkpt lat="45.64204" lon="2.86039">
        <ele>1245.9037230831</ele>
        <time>2015-08-21T12:04:55Z</time>
      </trkpt>
      <trkpt lat="45.64239" lon="2.86056">
        <ele>1237.8716910454</ele>
        <time>2015-08-21T12:05:53Z</time>
      </trkpt>
      <trkpt lat="45.64243" lon="2.86058">
        <ele>1237.8716910454</ele>
        <time>2015-08-21T12:05:58Z</time>
      </trkpt>
      <trkpt lat="45.64248" lon="2.86059">
        <ele>1230.7506062975</ele>
        <time>2015-08-21T12:06:05Z</time>
      </trkpt>
      <trkpt lat="45.64257" lon="2.86063">
        <ele>1224.4908251999</ele>
        <time>2015-08-21T12:06:10Z</time>
      </trkpt>
      <trkpt lat="45.64272" lon="2.86069">
        <ele>1218.873800347</ele>
        <time>2015-08-21T12:06:23Z</time>
      </trkpt>
      <trkpt lat="45.64302" lon="2.86078">
        <ele>1213.1491959631</ele>
        <time>2015-08-21T12:06:52Z</time>
      </trkpt>
      <trkpt lat="45.64303" lon="2.86078">
        <ele>1213.1491959631</ele>
        <time>2015-08-21T12:06:53Z</time>
      </trkpt>
      <trkpt lat="45.64302" lon="2.86078">
        <ele>1213.1491959631</ele>
        <time>2015-08-21T12:07:07Z</time>
      </trkpt>
      <trkpt lat="45.64305" lon="2.86078">
        <ele>1213.1491959631</ele>
        <time>2015-08-21T12:07:13Z</time>
      </trkpt>
      <trkpt lat="45.6434" lon="2.86087">
        <ele>1207.2878452004</ele>
        <time>2015-08-21T12:07:52Z</time>
      </trkpt>
      <trkpt lat="45.6434" lon="2.86087">
        <ele>1207.2878452004</ele>
        <time>2015-08-21T12:07:53Z</time>
      </trkpt>
      <trkpt lat="45.64344" lon="2.86087">
        <ele>1207.2878452004</ele>
        <time>2015-08-21T12:08:00Z</time>
      </trkpt>
      <trkpt lat="45.64364" lon="2.86096">
        <ele>1201.1724863686</ele>
        <time>2015-08-21T12:08:40Z</time>
      </trkpt>
      <trkpt lat="45.64376" lon="2.86095">
        <ele>1195.5538457009</ele>
        <time>2015-08-21T12:08:43Z</time>
      </trkpt>
      <trkpt lat="45.64378" lon="2.86097">
        <ele>1195.5538457009</ele>
        <time>2015-08-21T12:08:48Z</time>
      </trkpt>
      <trkpt lat="45.64377" lon="2.86097">
        <ele>1195.5538457009</ele>
        <time>2015-08-21T12:08:53Z</time>
      </trkpt>
      <trkpt lat="45.64381" lon="2.86104">
        <ele>1195.5538457009</ele>
        <time>2015-08-21T12:09:23Z</time>
      </trkpt>
      <trkpt lat="45.64386" lon="2.86105">
        <ele>1190.578082646</ele>
        <time>2015-08-21T12:09:28Z</time>
      </trkpt>
      <trkpt lat="45.64386" lon="2.86105">
        <ele>1190.578082646</ele>
        <time>2015-08-21T12:09:33Z</time>
      </trkpt>
      <trkpt lat="45.64397" lon="2.86108">
        <ele>1186.241354214</ele>
        <time>2015-08-21T12:09:51Z</time>
      </trkpt>
      <trkpt lat="45.64398" lon="2.86108">
        <ele>1186.241354214</ele>
        <time>2015-08-21T12:09:53Z</time>
      </trkpt>
      <trkpt lat="45.64402" lon="2.86112">
        <ele>1186.241354214</ele>
        <time>2015-08-21T12:10:00Z</time>
      </trkpt>
      <trkpt lat="45.64415" lon="2.86123">
        <ele>1182.5075316397</ele>
        <time>2015-08-21T12:10:13Z</time>
      </trkpt>
      <trkpt lat="45.64419" lon="2.86126">
        <ele>1182.5075316397</ele>
        <time>2015-08-21T12:10:27Z</time>
      </trkpt>
      <trkpt lat="45.64453" lon="2.86133">
        <ele>1178.8634813871</ele>
        <time>2015-08-21T12:10:53Z</time>
      </trkpt>
      <trkpt lat="45.64467" lon="2.86131">
        <ele>1175.3154149265</ele>
        <time>2015-08-21T12:11:38Z</time>
      </trkpt>
      <trkpt lat="45.64468" lon="2.86132">
        <ele>1175.3154149265</ele>
        <time>2015-08-21T12:11:39Z</time>
      </trkpt>
      <trkpt lat="45.64473" lon="2.86143">
        <ele>1172.373826676</ele>
        <time>2015-08-21T12:11:50Z</time>
      </trkpt>
      <trkpt lat="45.64474" lon="2.86146">
        <ele>1172.373826676</ele>
        <time>2015-08-21T12:11:53Z</time>
      </trkpt>
      <trkpt lat="45.64479" lon="2.86156">
        <ele>1170.0153799173</ele>
        <time>2015-08-21T12:11:59Z</time>
      </trkpt>
      <trkpt lat="45.64495" lon="2.86186">
        <ele>1168.024917681</ele>
        <time>2015-08-21T12:12:23Z</time>
      </trkpt>
      <trkpt lat="45.64501" lon="2.86198">
        <ele>1166.5140605556</ele>
        <time>2015-08-21T12:12:40Z</time>
      </trkpt>
      <trkpt lat="45.6451" lon="2.86207">
        <ele>1165.4073693483</ele>
        <time>2015-08-21T12:12:41Z</time>
      </trkpt>
      <trkpt lat="45.64524" lon="2.86222">
        <ele>1164.6200261311</ele>
        <time>2015-08-21T12:12:56Z</time>
      </trkpt>
      <trkpt lat="45.64526" lon="2.86224">
        <ele>1164.6200261311</ele>
        <time>2015-08-21T12:12:58Z</time>
      </trkpt>
      <trkpt lat="45.64531" lon="2.86226">
        <ele>1164.6200261311</ele>
        <time>2015-08-21T12:13:03Z</time>
      </trkpt>
      <trkpt lat="45.64534" lon="2.86228">
        <ele>1164.1466971105</ele>
        <time>2015-08-21T12:13:14Z</time>
      </trkpt>
      <trkpt lat="45.64576" lon="2.86245">
        <ele>1163.6747681173</ele>
        <time>2015-08-21T12:13:54Z</time>
      </trkpt>
      <trkpt lat="45.64593" lon="2.86235">
        <ele>1163.7632756774</ele>
        <time>2015-08-21T12:14:45Z</time>
      </trkpt>
      <trkpt lat="45.64597" lon="2.86226">
        <ele>1163.7632756774</ele>
        <time>2015-08-21T12:15:19Z</time>
      </trkpt>
      <trkpt lat="45.64605" lon="2.8622">
        <ele>1164.2256223106</ele>
        <time>2015-08-21T12:15:28Z</time>
      </trkpt>
      <trkpt lat="45.64607" lon="2.86219">
        <ele>1164.2256223106</ele>
        <time>2015-08-21T12:15:28Z</time>
      </trkpt>
      <trkpt lat="45.64636" lon="2.86199">
        <ele>1164.8893178232</ele>
        <time>2015-08-21T12:15:54Z</time>
      </trkpt>
      <trkpt lat="45.64641" lon="2.86196">
        <ele>1164.8893178232</ele>
        <time>2015-08-21T12:15:58Z</time>
      </trkpt>
      <trkpt lat="45.64647" lon="2.8619">
        <ele>1165.7548403845</ele>
        <time>2015-08-21T12:16:05Z</time>
      </trkpt>
      <trkpt lat="45.6465" lon="2.86187">
        <ele>1165.7548403845</ele>
        <time>2015-08-21T12:16:08Z</time>
      </trkpt>
      <trkpt lat="45.64654" lon="2.86182">
        <ele>1165.7548403845</ele>
        <time>2015-08-21T12:16:13Z</time>
      </trkpt>
      <trkpt lat="45.64686" lon="2.86153">
        <ele>1166.5320537721</ele>
        <time>2015-08-21T12:16:53Z</time>
      </trkpt>
      <trkpt lat="45.64691" lon="2.86145">
        <ele>1166.5320537721</ele>
        <time>2015-08-21T12:17:02Z</time>
      </trkpt>
      <trkpt lat="45.6472" lon="2.8611">
        <ele>1167.6346032065</ele>
        <time>2015-08-21T12:17:39Z</time>
      </trkpt>
      <trkpt lat="45.6472" lon="2.86126">
        <ele>1168.9366459346</ele>
        <time>2015-08-21T12:18:03Z</time>
      </trkpt>
      <trkpt lat="45.64713" lon="2.86155">
        <ele>1170.4662270462</ele>
        <time>2015-08-21T12:18:18Z</time>
      </trkpt>
      <trkpt lat="45.64711" lon="2.86163">
        <ele>1170.4662270462</ele>
        <time>2015-08-21T12:18:23Z</time>
      </trkpt>
      <trkpt lat="45.64714" lon="2.86164">
        <ele>1170.4662270462</ele>
        <time>2015-08-21T12:18:28Z</time>
      </trkpt>
      <trkpt lat="45.64716" lon="2.86166">
        <ele>1172.1909495659</ele>
        <time>2015-08-21T12:18:35Z</time>
      </trkpt>
      <trkpt lat="45.64714" lon="2.8617">
        <ele>1172.1909495659</ele>
        <time>2015-08-21T12:19:33Z</time>
      </trkpt>
      <trkpt lat="45.64713" lon="2.8617">
        <ele>1172.1909495659</ele>
        <time>2015-08-21T12:19:38Z</time>
      </trkpt>
      <trkpt lat="45.64714" lon="2.86166">
        <ele>1172.1909495659</ele>
        <time>2015-08-21T12:20:03Z</time>
      </trkpt>
      <trkpt lat="45.64714" lon="2.86166">
        <ele>1172.1909495659</ele>
        <time>2015-08-21T12:20:08Z</time>
      </trkpt>
      <trkpt lat="45.64724" lon="2.86168">
        <ele>1175.3947820891</ele>
        <time>2015-08-21T12:20:43Z</time>
      </trkpt>
      <trkpt lat="45.64723" lon="2.86167">
        <ele>1175.3947820891</ele>
        <time>2015-08-21T12:20:48Z</time>
      </trkpt>
      <trkpt lat="45.64722" lon="2.86169">
        <ele>1175.3947820891</ele>
        <time>2015-08-21T12:21:28Z</time>
      </trkpt>
      <trkpt lat="45.64721" lon="2.86176">
        <ele>1175.3947820891</ele>
        <time>2015-08-21T12:21:34Z</time>
      </trkpt>
      <trkpt lat="45.64722" lon="2.86197">
        <ele>1178.6049257636</ele>
        <time>2015-08-21T12:21:47Z</time>
      </trkpt>
      <trkpt lat="45.64721" lon="2.86198">
        <ele>1178.6049257636</ele>
        <time>2015-08-21T12:21:48Z</time>
      </trkpt>
      <trkpt lat="45.64722" lon="2.86206">
        <ele>1178.6049257636</ele>
        <time>2015-08-21T12:21:53Z</time>
      </trkpt>
      <trkpt lat="45.64724" lon="2.86212">
        <ele>1181.888221385</ele>
        <time>2015-08-21T12:21:58Z</time>
      </trkpt>
      <trkpt lat="45.64725" lon="2.86218">
        <ele>1181.888221385</ele>
        <time>2015-08-21T12:22:03Z</time>
      </trkpt>
      <trkpt lat="45.64726" lon="2.86221">
        <ele>1181.888221385</ele>
        <time>2015-08-21T12:22:08Z</time>
      </trkpt>
      <trkpt lat="45.64727" lon="2.86225">
        <ele>1185.1910686557</ele>
        <time>2015-08-21T12:22:13Z</time>
      </trkpt>
      <trkpt lat="45.64726" lon="2.86229">
        <ele>1185.1910686557</ele>
        <time>2015-08-21T12:22:18Z</time>
      </trkpt>
      <trkpt lat="45.64726" lon="2.86233">
        <ele>1185.1910686557</ele>
        <time>2015-08-21T12:22:23Z</time>
      </trkpt>
      <trkpt lat="45.64724" lon="2.86233">
        <ele>1185.1910686557</ele>
        <time>2015-08-21T12:22:28Z</time>
      </trkpt>
      <trkpt lat="45.64724" lon="2.86238">
        <ele>1188.5938329324</ele>
        <time>2015-08-21T12:23:03Z</time>
      </trkpt>
      <trkpt lat="45.6473" lon="2.86241">
        <ele>1188.5938329324</ele>
        <time>2015-08-21T12:23:08Z</time>
      </trkpt>
      <trkpt lat="45.64732" lon="2.86244">
        <ele>1191.7815691355</ele>
        <time>2015-08-21T12:23:13Z</time>
      </trkpt>
      <trkpt lat="45.64738" lon="2.86253">
        <ele>1191.7815691355</ele>
        <time>2015-08-21T12:23:48Z</time>
      </trkpt>
      <trkpt lat="45.64736" lon="2.86257">
        <ele>1194.7086564416</ele>
        <time>2015-08-21T12:23:53Z</time>
      </trkpt>
      <trkpt lat="45.64735" lon="2.86263">
        <ele>1194.7086564416</ele>
        <time>2015-08-21T12:24:03Z</time>
      </trkpt>
      <trkpt lat="45.64733" lon="2.86275">
        <ele>1197.5357360035</ele>
        <time>2015-08-21T12:24:11Z</time>
      </trkpt>
      <trkpt lat="45.64732" lon="2.86277">
        <ele>1197.5357360035</ele>
        <time>2015-08-21T12:24:14Z</time>
      </trkpt>
      <trkpt lat="45.64732" lon="2.86278">
        <ele>1197.5357360035</ele>
        <time>2015-08-21T12:24:23Z</time>
      </trkpt>
      <trkpt lat="45.6473" lon="2.86351">
        <ele>1199.9653279315</ele>
        <time>2015-08-21T12:25:10Z</time>
      </trkpt>
      <trkpt lat="45.64728" lon="2.86356">
        <ele>1199.9653279315</ele>
        <time>2015-08-21T12:25:13Z</time>
      </trkpt>
      <trkpt lat="45.64727" lon="2.86364">
        <ele>1202.2423871951</ele>
        <time>2015-08-21T12:25:18Z</time>
      </trkpt>
      <trkpt lat="45.64726" lon="2.86374">
        <ele>1202.2423871951</ele>
        <time>2015-08-21T12:25:23Z</time>
      </trkpt>
      <trkpt lat="45.64728" lon="2.86464">
        <ele>1204.0468589365</ele>
        <time>2015-08-21T12:26:16Z</time>
      </trkpt>
      <trkpt lat="45.64724" lon="2.86521">
        <ele>1205.7183884067</ele>
        <time>2015-08-21T12:27:00Z</time>
      </trkpt>
      <trkpt lat="45.64723" lon="2.86568">
        <ele>1206.2171403274</ele>
        <time>2015-08-21T12:27:15Z</time>
      </trkpt>
      <trkpt lat="45.64726" lon="2.86605">
        <ele>1206.0685843351</ele>
        <time>2015-08-21T12:27:45Z</time>
      </trkpt>
      <trkpt lat="45.6472" lon="2.86669">
        <ele>1204.262179707</ele>
        <time>2015-08-21T12:28:13Z</time>
      </trkpt>
      <trkpt lat="45.6469" lon="2.86755">
        <ele>1201.1213227811</ele>
        <time>2015-08-21T12:29:06Z</time>
      </trkpt>
      <trkpt lat="45.64689" lon="2.86758">
        <ele>1201.1213227811</ele>
        <time>2015-08-21T12:29:08Z</time>
      </trkpt>
      <trkpt lat="45.64689" lon="2.86768">
        <ele>1198.0604579548</ele>
        <time>2015-08-21T12:29:13Z</time>
      </trkpt>
      <trkpt lat="45.64664" lon="2.86872">
        <ele>1194.2702471915</ele>
        <time>2015-08-21T12:30:13Z</time>
      </trkpt>
      <trkpt lat="45.64661" lon="2.86881">
        <ele>1194.2702471915</ele>
        <time>2015-08-21T12:30:20Z</time>
      </trkpt>
      <trkpt lat="45.64661" lon="2.86882">
        <ele>1194.2702471915</ele>
        <time>2015-08-21T12:30:28Z</time>
      </trkpt>
      <trkpt lat="45.64655" lon="2.8689">
        <ele>1190.6763090993</ele>
        <time>2015-08-21T12:30:29Z</time>
      </trkpt>
      <trkpt lat="45.64639" lon="2.86914">
        <ele>1187.2850425394</ele>
        <time>2015-08-21T12:30:52Z</time>
      </trkpt>
      <trkpt lat="45.6463" lon="2.8693">
        <ele>1184.3905392511</ele>
        <time>2015-08-21T12:31:07Z</time>
      </trkpt>
      <trkpt lat="45.64637" lon="2.86941">
        <ele>1181.8890491574</ele>
        <time>2015-08-21T12:31:23Z</time>
      </trkpt>
      <trkpt lat="45.64639" lon="2.86945">
        <ele>1181.8890491574</ele>
        <time>2015-08-21T12:31:40Z</time>
      </trkpt>
      <trkpt lat="45.64638" lon="2.86947">
        <ele>1181.8890491574</ele>
        <time>2015-08-21T12:31:43Z</time>
      </trkpt>
      <trkpt lat="45.646" lon="2.86971">
        <ele>1179.8566020207</ele>
        <time>2015-08-21T12:32:16Z</time>
      </trkpt>
      <trkpt lat="45.64553" lon="2.87048">
        <ele>1177.8287633724</ele>
        <time>2015-08-21T12:33:13Z</time>
      </trkpt>
      <trkpt lat="45.64548" lon="2.87055">
        <ele>1177.8287633724</ele>
        <time>2015-08-21T12:33:49Z</time>
      </trkpt>
      <trkpt lat="45.64534" lon="2.87095">
        <ele>1175.6782854232</ele>
        <time>2015-08-21T12:33:57Z</time>
      </trkpt>
      <trkpt lat="45.64513" lon="2.8712">
        <ele>1173.8069908909</ele>
        <time>2015-08-21T12:34:13Z</time>
      </trkpt>
      <trkpt lat="45.64513" lon="2.87127">
        <ele>1173.8069908909</ele>
        <time>2015-08-21T12:34:18Z</time>
      </trkpt>
      <trkpt lat="45.64513" lon="2.87136">
        <ele>1172.153739545</ele>
        <time>2015-08-21T12:34:23Z</time>
      </trkpt>
      <trkpt lat="45.6451" lon="2.87181">
        <ele>1170.6180905306</ele>
        <time>2015-08-21T12:34:58Z</time>
      </trkpt>
      <trkpt lat="45.645" lon="2.87193">
        <ele>1169.2221110987</ele>
        <time>2015-08-21T12:34:59Z</time>
      </trkpt>
      <trkpt lat="45.64488" lon="2.87203">
        <ele>1168.0003288989</ele>
        <time>2015-08-21T12:35:09Z</time>
      </trkpt>
      <trkpt lat="45.64483" lon="2.87215">
        <ele>1166.8689253628</ele>
        <time>2015-08-21T12:35:15Z</time>
      </trkpt>
      <trkpt lat="45.64485" lon="2.8722">
        <ele>1166.8689253628</ele>
        <time>2015-08-21T12:35:19Z</time>
      </trkpt>
      <trkpt lat="45.645" lon="2.87264">
        <ele>1165.9230814822</ele>
        <time>2015-08-21T12:35:48Z</time>
      </trkpt>
      <trkpt lat="45.645" lon="2.87271">
        <ele>1165.9230814822</ele>
        <time>2015-08-21T12:35:57Z</time>
      </trkpt>
      <trkpt lat="45.64498" lon="2.87292">
        <ele>1165.1207136065</ele>
        <time>2015-08-21T12:35:58Z</time>
      </trkpt>
      <trkpt lat="45.645" lon="2.8731">
        <ele>1164.292707943</ele>
        <time>2015-08-21T12:36:11Z</time>
      </trkpt>
      <trkpt lat="45.64501" lon="2.87319">
        <ele>1164.292707943</ele>
        <time>2015-08-21T12:36:23Z</time>
      </trkpt>
      <trkpt lat="45.64511" lon="2.8738">
        <ele>1163.1527555311</ele>
        <time>2015-08-21T12:37:04Z</time>
      </trkpt>
      <trkpt lat="45.64517" lon="2.87412">
        <ele>1162.0132033029</ele>
        <time>2015-08-21T12:37:14Z</time>
      </trkpt>
      <trkpt lat="45.64516" lon="2.87418">
        <ele>1162.0132033029</ele>
        <time>2015-08-21T12:37:18Z</time>
      </trkpt>
      <trkpt lat="45.64514" lon="2.87496">
        <ele>1160.5579414151</ele>
        <time>2015-08-21T12:38:01Z</time>
      </trkpt>
      <trkpt lat="45.64513" lon="2.875">
        <ele>1160.5579414151</ele>
        <time>2015-08-21T12:38:05Z</time>
      </trkpt>
      <trkpt lat="45.6451" lon="2.87518">
        <ele>1159.0139908194</ele>
        <time>2015-08-21T12:38:15Z</time>
      </trkpt>
      <trkpt lat="45.64509" lon="2.8759">
        <ele>1157.0585662414</ele>
        <time>2015-08-21T12:38:55Z</time>
      </trkpt>
      <trkpt lat="45.6451" lon="2.87614">
        <ele>1155.0712648209</ele>
        <time>2015-08-21T12:39:20Z</time>
      </trkpt>
      <trkpt lat="45.64508" lon="2.87621">
        <ele>1155.0712648209</ele>
        <time>2015-08-21T12:39:27Z</time>
      </trkpt>
      <trkpt lat="45.64516" lon="2.8771">
        <ele>1152.2218948632</ele>
        <time>2015-08-21T12:40:18Z</time>
      </trkpt>
      <trkpt lat="45.64526" lon="2.87763">
        <ele>1149.0841831272</ele>
        <time>2015-08-21T12:40:49Z</time>
      </trkpt>
      <trkpt lat="45.64527" lon="2.87765">
        <ele>1149.0841831272</ele>
        <time>2015-08-21T12:40:49Z</time>
      </trkpt>
      <trkpt lat="45.64532" lon="2.87776">
        <ele>1146.0462835373</ele>
        <time>2015-08-21T12:41:00Z</time>
      </trkpt>
      <trkpt lat="45.64544" lon="2.87817">
        <ele>1143.3377557731</ele>
        <time>2015-08-21T12:41:23Z</time>
      </trkpt>
      <trkpt lat="45.64552" lon="2.8783">
        <ele>1140.9252851138</ele>
        <time>2015-08-21T12:41:33Z</time>
      </trkpt>
      <trkpt lat="45.64555" lon="2.87838">
        <ele>1140.9252851138</ele>
        <time>2015-08-21T12:41:40Z</time>
      </trkpt>
      <trkpt lat="45.64555" lon="2.8784">
        <ele>1140.9252851138</ele>
        <time>2015-08-21T12:41:49Z</time>
      </trkpt>
      <trkpt lat="45.64598" lon="2.87875">
        <ele>1138.7482831026</ele>
        <time>2015-08-21T12:42:18Z</time>
      </trkpt>
      <trkpt lat="45.64603" lon="2.87879">
        <ele>1138.7482831026</ele>
        <time>2015-08-21T12:42:32Z</time>
      </trkpt>
      <trkpt lat="45.64625" lon="2.879">
        <ele>1136.6922296506</ele>
        <time>2015-08-21T12:42:50Z</time>
      </trkpt>
      <trkpt lat="45.64639" lon="2.87915">
        <ele>1134.7370685328</ele>
        <time>2015-08-21T12:42:58Z</time>
      </trkpt>
      <trkpt lat="45.64652" lon="2.87922">
        <ele>1133.0511952665</ele>
        <time>2015-08-21T12:43:09Z</time>
      </trkpt>
      <trkpt lat="45.64663" lon="2.87931">
        <ele>1131.4150867092</ele>
        <time>2015-08-21T12:43:17Z</time>
      </trkpt>
      <trkpt lat="45.64664" lon="2.87932">
        <ele>1131.4150867092</ele>
        <time>2015-08-21T12:43:18Z</time>
      </trkpt>
      <trkpt lat="45.64673" lon="2.8794">
        <ele>1130.0718731841</ele>
        <time>2015-08-21T12:43:34Z</time>
      </trkpt>
      <trkpt lat="45.647" lon="2.87975">
        <ele>1128.6838691534</ele>
        <time>2015-08-21T12:44:08Z</time>
      </trkpt>
      <trkpt lat="45.64721" lon="2.87993">
        <ele>1127.3417542613</ele>
        <time>2015-08-21T12:44:17Z</time>
      </trkpt>
      <trkpt lat="45.64722" lon="2.87995">
        <ele>1127.3417542613</ele>
        <time>2015-08-21T12:44:18Z</time>
      </trkpt>
      <trkpt lat="45.64742" lon="2.8802">
        <ele>1126.1005117019</ele>
        <time>2015-08-21T12:44:35Z</time>
      </trkpt>
      <trkpt lat="45.64746" lon="2.88032">
        <ele>1125.0539579869</ele>
        <time>2015-08-21T12:44:54Z</time>
      </trkpt>
      <trkpt lat="45.64756" lon="2.8805">
        <ele>1123.7551817134</ele>
        <time>2015-08-21T12:45:07Z</time>
      </trkpt>
      <trkpt lat="45.64772" lon="2.88076">
        <ele>1122.4248351127</ele>
        <time>2015-08-21T12:45:18Z</time>
      </trkpt>
      <trkpt lat="45.64769" lon="2.8808">
        <ele>1122.4248351127</ele>
        <time>2015-08-21T12:45:32Z</time>
      </trkpt>
      <trkpt lat="45.64739" lon="2.88084">
        <ele>1121.18091845</ele>
        <time>2015-08-21T12:46:00Z</time>
      </trkpt>
      <trkpt lat="45.64721" lon="2.88087">
        <ele>1120.1468737236</ele>
        <time>2015-08-21T12:46:18Z</time>
      </trkpt>
      <trkpt lat="45.64705" lon="2.8809">
        <ele>1119.0761483614</ele>
        <time>2015-08-21T12:46:48Z</time>
      </trkpt>
      <trkpt lat="45.64668" lon="2.88081">
        <ele>1117.8124097006</ele>
        <time>2015-08-21T12:47:18Z</time>
      </trkpt>
      <trkpt lat="45.64615" lon="2.88073">
        <ele>1116.5860007448</ele>
        <time>2015-08-21T12:48:18Z</time>
      </trkpt>
      <trkpt lat="45.64604" lon="2.88072">
        <ele>1115.5093190266</ele>
        <time>2015-08-21T12:48:34Z</time>
      </trkpt>
      <trkpt lat="45.64578" lon="2.88071">
        <ele>1114.6139920173</ele>
        <time>2015-08-21T12:48:55Z</time>
      </trkpt>
      <trkpt lat="45.64529" lon="2.88091">
        <ele>1114.2314246457</ele>
        <time>2015-08-21T12:49:23Z</time>
      </trkpt>
      <trkpt lat="45.64521" lon="2.88101">
        <ele>1114.1051674934</ele>
        <time>2015-08-21T12:49:36Z</time>
      </trkpt>
      <trkpt lat="45.64466" lon="2.88124">
        <ele>1114.3139278376</ele>
        <time>2015-08-21T12:50:20Z</time>
      </trkpt>
      <trkpt lat="45.64459" lon="2.88123">
        <ele>1114.3139278376</ele>
        <time>2015-08-21T12:50:25Z</time>
      </trkpt>
      <trkpt lat="45.64446" lon="2.88128">
        <ele>1114.6702805254</ele>
        <time>2015-08-21T12:51:05Z</time>
      </trkpt>
      <trkpt lat="45.64381" lon="2.88197">
        <ele>1115.1298665419</ele>
        <time>2015-08-21T12:51:19Z</time>
      </trkpt>
      <trkpt lat="45.6438" lon="2.88195">
        <ele>1115.1298665419</ele>
        <time>2015-08-21T12:51:25Z</time>
      </trkpt>
      <trkpt lat="45.64376" lon="2.88191">
        <ele>1115.1298665419</ele>
        <time>2015-08-21T12:51:38Z</time>
      </trkpt>
      <trkpt lat="45.64335" lon="2.88195">
        <ele>1115.4207335265</ele>
        <time>2015-08-21T12:52:18Z</time>
      </trkpt>
      <trkpt lat="45.64331" lon="2.88192">
        <ele>1115.4207335265</ele>
        <time>2015-08-21T12:52:23Z</time>
      </trkpt>
      <trkpt lat="45.64294" lon="2.88179">
        <ele>1116.7325636725</ele>
        <time>2015-08-21T12:52:55Z</time>
      </trkpt>
      <trkpt lat="45.64248" lon="2.88177">
        <ele>1118.8822078399</ele>
        <time>2015-08-21T12:53:45Z</time>
      </trkpt>
      <trkpt lat="45.64241" lon="2.8818">
        <ele>1118.8822078399</ele>
        <time>2015-08-21T12:53:45Z</time>
      </trkpt>
      <trkpt lat="45.64205" lon="2.88194">
        <ele>1121.6976905716</ele>
        <time>2015-08-21T12:54:24Z</time>
      </trkpt>
      <trkpt lat="45.64203" lon="2.88193">
        <ele>1121.6976905716</ele>
        <time>2015-08-21T12:54:33Z</time>
      </trkpt>
      <trkpt lat="45.64141" lon="2.88203">
        <ele>1125.1187746329</ele>
        <time>2015-08-21T12:55:20Z</time>
      </trkpt>
      <trkpt lat="45.64135" lon="2.88203">
        <ele>1125.1187746329</ele>
        <time>2015-08-21T12:55:23Z</time>
      </trkpt>
      <trkpt lat="45.64097" lon="2.88219">
        <ele>1128.7421934026</ele>
        <time>2015-08-21T12:55:54Z</time>
      </trkpt>
      <trkpt lat="45.64028" lon="2.88277">
        <ele>1132.5253473707</ele>
        <time>2015-08-21T12:56:58Z</time>
      </trkpt>
      <trkpt lat="45.64013" lon="2.88313">
        <ele>1135.8088029417</ele>
        <time>2015-08-21T12:57:25Z</time>
      </trkpt>
      <trkpt lat="45.64009" lon="2.88321">
        <ele>1135.8088029417</ele>
        <time>2015-08-21T12:57:35Z</time>
      </trkpt>
      <trkpt lat="45.63982" lon="2.88411">
        <ele>1139.1360823803</ele>
        <time>2015-08-21T12:58:23Z</time>
      </trkpt>
      <trkpt lat="45.63978" lon="2.88418">
        <ele>1139.1360823803</ele>
        <time>2015-08-21T12:58:33Z</time>
      </trkpt>
      <trkpt lat="45.63948" lon="2.88496">
        <ele>1142.8667643275</ele>
        <time>2015-08-21T12:59:23Z</time>
      </trkpt>
      <trkpt lat="45.63936" lon="2.88524">
        <ele>1146.1081596441</ele>
        <time>2015-08-21T12:59:47Z</time>
      </trkpt>
      <trkpt lat="45.63905" lon="2.88593">
        <ele>1149.2021084915</ele>
        <time>2015-08-21T13:00:23Z</time>
      </trkpt>
      <trkpt lat="45.63876" lon="2.88651">
        <ele>1152.2642675604</ele>
        <time>2015-08-21T13:01:08Z</time>
      </trkpt>
      <trkpt lat="45.6386" lon="2.88675">
        <ele>1154.8689545093</ele>
        <time>2015-08-21T13:01:23Z</time>
      </trkpt>
      <trkpt lat="45.63859" lon="2.8868">
        <ele>1154.8689545093</ele>
        <time>2015-08-21T13:01:33Z</time>
      </trkpt>
      <trkpt lat="45.63853" lon="2.88689">
        <ele>1157.2574300516</ele>
        <time>2015-08-21T13:01:36Z</time>
      </trkpt>
      <trkpt lat="45.63849" lon="2.88706">
        <ele>1159.452376623</ele>
        <time>2015-08-21T13:02:13Z</time>
      </trkpt>
      <trkpt lat="45.63817" lon="2.8875">
        <ele>1161.6774078454</ele>
        <time>2015-08-21T13:02:22Z</time>
      </trkpt>
      <trkpt lat="45.63812" lon="2.88753">
        <ele>1161.6774078454</ele>
        <time>2015-08-21T13:02:23Z</time>
      </trkpt>
      <trkpt lat="45.63766" lon="2.8884">
        <ele>1165.0045958194</ele>
        <time>2015-08-21T13:03:23Z</time>
      </trkpt>
      <trkpt lat="45.6376" lon="2.88843">
        <ele>1165.0045958194</ele>
        <time>2015-08-21T13:03:29Z</time>
      </trkpt>
      <trkpt lat="45.63719" lon="2.88892">
        <ele>1168.3636630163</ele>
        <time>2015-08-21T13:04:18Z</time>
      </trkpt>
      <trkpt lat="45.63712" lon="2.889">
        <ele>1168.3636630163</ele>
        <time>2015-08-21T13:04:25Z</time>
      </trkpt>
      <trkpt lat="45.63711" lon="2.88904">
        <ele>1171.3828490551</ele>
        <time>2015-08-21T13:04:34Z</time>
      </trkpt>
      <trkpt lat="45.63669" lon="2.88921">
        <ele>1173.6036691378</ele>
        <time>2015-08-21T13:05:23Z</time>
      </trkpt>
      <trkpt lat="45.63662" lon="2.88923">
        <ele>1173.6036691378</ele>
        <time>2015-08-21T13:05:29Z</time>
      </trkpt>
      <trkpt lat="45.63659" lon="2.88926">
        <ele>1175.1226600644</ele>
        <time>2015-08-21T13:05:33Z</time>
      </trkpt>
      <trkpt lat="45.63658" lon="2.88928">
        <ele>1175.1226600644</ele>
        <time>2015-08-21T13:05:38Z</time>
      </trkpt>
      <trkpt lat="45.6366" lon="2.88927">
        <ele>1175.1226600644</ele>
        <time>2015-08-21T13:05:43Z</time>
      </trkpt>
      <trkpt lat="45.63658" lon="2.88929">
        <ele>1175.1226600644</ele>
        <time>2015-08-21T13:05:58Z</time>
      </trkpt>
      <trkpt lat="45.63649" lon="2.88932">
        <ele>1175.9162387591</ele>
        <time>2015-08-21T13:06:10Z</time>
      </trkpt>
      <trkpt lat="45.63646" lon="2.88931">
        <ele>1175.9162387591</ele>
        <time>2015-08-21T13:06:13Z</time>
      </trkpt>
      <trkpt lat="45.63632" lon="2.88932">
        <ele>1176.382792583</ele>
        <time>2015-08-21T13:06:26Z</time>
      </trkpt>
      <trkpt lat="45.6363" lon="2.88933">
        <ele>1176.382792583</ele>
        <time>2015-08-21T13:06:28Z</time>
      </trkpt>
      <trkpt lat="45.63623" lon="2.88936">
        <ele>1176.5035224923</ele>
        <time>2015-08-21T13:06:35Z</time>
      </trkpt>
      <trkpt lat="45.63622" lon="2.88938">
        <ele>1176.5035224923</ele>
        <time>2015-08-21T13:06:44Z</time>
      </trkpt>
      <trkpt lat="45.63617" lon="2.88944">
        <ele>1176.5035224923</ele>
        <time>2015-08-21T13:07:17Z</time>
      </trkpt>
      <trkpt lat="45.63593" lon="2.88953">
        <ele>1176.0892886483</ele>
        <time>2015-08-21T13:07:18Z</time>
      </trkpt>
      <trkpt lat="45.63581" lon="2.88962">
        <ele>1175.6871208815</ele>
        <time>2015-08-21T13:07:31Z</time>
      </trkpt>
      <trkpt lat="45.6358" lon="2.88963">
        <ele>1175.6871208815</ele>
        <time>2015-08-21T13:07:33Z</time>
      </trkpt>
      <trkpt lat="45.63555" lon="2.8897">
        <ele>1175.4581574233</ele>
        <time>2015-08-21T13:08:01Z</time>
      </trkpt>
      <trkpt lat="45.63555" lon="2.8897">
        <ele>1175.4581574233</ele>
        <time>2015-08-21T13:08:03Z</time>
      </trkpt>
      <trkpt lat="45.63531" lon="2.88969">
        <ele>1175.6378509209</ele>
        <time>2015-08-21T13:08:33Z</time>
      </trkpt>
      <trkpt lat="45.63522" lon="2.88974">
        <ele>1175.7804484547</ele>
        <time>2015-08-21T13:08:49Z</time>
      </trkpt>
      <trkpt lat="45.63491" lon="2.88987">
        <ele>1175.9775644056</ele>
        <time>2015-08-21T13:09:17Z</time>
      </trkpt>
      <trkpt lat="45.63485" lon="2.88992">
        <ele>1175.9775644056</ele>
        <time>2015-08-21T13:09:26Z</time>
      </trkpt>
      <trkpt lat="45.63478" lon="2.88989">
        <ele>1175.708774047</ele>
        <time>2015-08-21T13:09:29Z</time>
      </trkpt>
      <trkpt lat="45.63477" lon="2.88992">
        <ele>1175.708774047</ele>
        <time>2015-08-21T13:09:33Z</time>
      </trkpt>
      <trkpt lat="45.63475" lon="2.88995">
        <ele>1175.708774047</ele>
        <time>2015-08-21T13:09:42Z</time>
      </trkpt>
      <trkpt lat="45.63449" lon="2.88997">
        <ele>1175.1417832958</ele>
        <time>2015-08-21T13:10:33Z</time>
      </trkpt>
      <trkpt lat="45.63449" lon="2.89007">
        <ele>1175.1417832958</ele>
        <time>2015-08-21T13:11:33Z</time>
      </trkpt>
      <trkpt lat="45.63446" lon="2.88993">
        <ele>1174.0870223883</ele>
        <time>2015-08-21T13:12:28Z</time>
      </trkpt>
      <trkpt lat="45.6345" lon="2.89006">
        <ele>1172.932303657</ele>
        <time>2015-08-21T13:13:26Z</time>
      </trkpt>
      <trkpt lat="45.6345" lon="2.89002">
        <ele>1172.932303657</ele>
        <time>2015-08-21T13:13:34Z</time>
      </trkpt>
      <trkpt lat="45.63456" lon="2.88968">
        <ele>1171.9075649979</ele>
        <time>2015-08-21T13:14:24Z</time>
      </trkpt>
      <trkpt lat="45.63462" lon="2.88936">
        <ele>1171.3407914373</ele>
        <time>2015-08-21T13:14:28Z</time>
      </trkpt>
      <trkpt lat="45.63464" lon="2.88928">
        <ele>1171.3407914373</ele>
        <time>2015-08-21T13:14:33Z</time>
      </trkpt>
      <trkpt lat="45.63464" lon="2.88917">
        <ele>1170.9869629423</ele>
        <time>2015-08-21T13:14:43Z</time>
      </trkpt>
      <trkpt lat="45.63492" lon="2.88892">
        <ele>1171.2813545705</ele>
        <time>2015-08-21T13:15:28Z</time>
      </trkpt>
      <trkpt lat="45.63498" lon="2.88889">
        <ele>1171.2813545705</ele>
        <time>2015-08-21T13:15:40Z</time>
      </trkpt>
      <trkpt lat="45.63497" lon="2.88881">
        <ele>1171.7895742808</ele>
        <time>2015-08-21T13:16:09Z</time>
      </trkpt>
      <trkpt lat="45.63493" lon="2.88867">
        <ele>1172.3102609724</ele>
        <time>2015-08-21T13:16:34Z</time>
      </trkpt>
      <trkpt lat="45.63484" lon="2.88841">
        <ele>1172.7144156292</ele>
        <time>2015-08-21T13:17:07Z</time>
      </trkpt>
      <trkpt lat="45.63481" lon="2.88819">
        <ele>1172.9980892448</ele>
        <time>2015-08-21T13:17:24Z</time>
      </trkpt>
      <trkpt lat="45.63472" lon="2.88807">
        <ele>1173.2732052544</ele>
        <time>2015-08-21T13:17:28Z</time>
      </trkpt>
      <trkpt lat="45.63464" lon="2.88801">
        <ele>1173.4128636669</ele>
        <time>2015-08-21T13:17:35Z</time>
      </trkpt>
      <trkpt lat="45.63458" lon="2.88801">
        <ele>1173.4128636669</ele>
        <time>2015-08-21T13:17:38Z</time>
      </trkpt>
      <trkpt lat="45.63451" lon="2.88802">
        <ele>1173.4439268138</ele>
        <time>2015-08-21T13:17:43Z</time>
      </trkpt>
      <trkpt lat="45.63445" lon="2.888">
        <ele>1173.4439268138</ele>
        <time>2015-08-21T13:17:58Z</time>
      </trkpt>
      <trkpt lat="45.63421" lon="2.88805">
        <ele>1173.420356044</ele>
        <time>2015-08-21T13:18:12Z</time>
      </trkpt>
      <trkpt lat="45.63419" lon="2.88804">
        <ele>1173.420356044</ele>
        <time>2015-08-21T13:18:14Z</time>
      </trkpt>
      <trkpt lat="45.63415" lon="2.88804">
        <ele>1173.420356044</ele>
        <time>2015-08-21T13:18:18Z</time>
      </trkpt>
      <trkpt lat="45.63413" lon="2.88806">
        <ele>1173.5795885881</ele>
        <time>2015-08-21T13:18:23Z</time>
      </trkpt>
      <trkpt lat="45.63408" lon="2.88806">
        <ele>1173.5795885881</ele>
        <time>2015-08-21T13:18:28Z</time>
      </trkpt>
      <trkpt lat="45.63403" lon="2.88807">
        <ele>1173.9681123787</ele>
        <time>2015-08-21T13:18:33Z</time>
      </trkpt>
      <trkpt lat="45.63398" lon="2.88807">
        <ele>1173.9681123787</ele>
        <time>2015-08-21T13:18:38Z</time>
      </trkpt>
    </trkseg>
  </trk>
</gpx>